<?xml version="1.0" encoding="UTF-8" standalone="no" ?>
<gpx xmlns="http://www.topografix.com/GPX/1/1" xmlns:xsi="http://www.w3.org/2001/XMLSchema-instance" xsi:schemaLocation="http://www.topografix.com/GPX/1/1 http://www.topografix.com/GPX/1/1/gpx.xsd" version="1.1" creator="VisuGPX - https://www.visugpx.com">
  <metadata>
    <name>StNazaire_Tour_19-22km</name>
    <desc><![CDATA[gnerando idor:8373925_8827428_8835599]]></desc>
  </metadata>
  <trk>
    <name><![CDATA[StNazaire_TourParStMarc_22km-8835599]]></name>
    <extensions>
      <line xmlns="http://www.topografix.com/GPX/gpx_style/0/2">
        <color>FF0000</color>
        <width>4</width>
      </line>
    </extensions>
    <trkseg>
      <trkpt lat="47.27167" lon="-2.22813">
        <ele>6</ele>
        <time>2023-11-13T09:05:45Z</time>
      </trkpt>
      <trkpt lat="47.27171" lon="-2.2276">
        <ele>5</ele>
        <time>2023-11-13T09:06:33Z</time>
      </trkpt>
      <trkpt lat="47.27183" lon="-2.22706">
        <ele>6</ele>
        <time>2023-11-13T09:07:25Z</time>
      </trkpt>
      <trkpt lat="47.27201" lon="-2.22708">
        <ele>6</ele>
        <time>2023-11-13T09:07:49Z</time>
      </trkpt>
      <trkpt lat="47.27219" lon="-2.22716">
        <ele>6</ele>
        <time>2023-11-13T09:08:14Z</time>
      </trkpt>
      <trkpt lat="47.27256" lon="-2.22727">
        <ele>6</ele>
        <time>2023-11-13T09:09:04Z</time>
      </trkpt>
      <trkpt lat="47.27273" lon="-2.22736">
        <ele>6</ele>
        <time>2023-11-13T09:09:28Z</time>
      </trkpt>
      <trkpt lat="47.27287" lon="-2.22753">
        <ele>6</ele>
        <time>2023-11-13T09:09:53Z</time>
      </trkpt>
      <trkpt lat="47.27305" lon="-2.22761">
        <ele>5</ele>
        <time>2023-11-13T09:10:18Z</time>
      </trkpt>
      <trkpt lat="47.27324" lon="-2.22757">
        <ele>5</ele>
        <time>2023-11-13T09:10:43Z</time>
      </trkpt>
      <trkpt lat="47.27342" lon="-2.22763">
        <ele>5</ele>
        <time>2023-11-13T09:11:08Z</time>
      </trkpt>
      <trkpt lat="47.27373" lon="-2.22737">
        <ele>5</ele>
        <time>2023-11-13T09:11:56Z</time>
      </trkpt>
      <trkpt lat="47.27391" lon="-2.22731">
        <ele>6</ele>
        <time>2023-11-13T09:12:20Z</time>
      </trkpt>
      <trkpt lat="47.27408" lon="-2.2272">
        <ele>6</ele>
        <time>2023-11-13T09:12:45Z</time>
      </trkpt>
      <trkpt lat="47.27427" lon="-2.22672">
        <ele>6</ele>
        <time>2023-11-13T09:13:35Z</time>
      </trkpt>
      <trkpt lat="47.2743" lon="-2.22645">
        <ele>6</ele>
        <time>2023-11-13T09:14:00Z</time>
      </trkpt>
      <trkpt lat="47.27425" lon="-2.22619">
        <ele>6</ele>
        <time>2023-11-13T09:14:24Z</time>
      </trkpt>
      <trkpt lat="47.27439" lon="-2.22601">
        <ele>6</ele>
        <time>2023-11-13T09:14:49Z</time>
      </trkpt>
      <trkpt lat="47.27457" lon="-2.226">
        <ele>7</ele>
        <time>2023-11-13T09:15:13Z</time>
      </trkpt>
      <trkpt lat="47.27469" lon="-2.22622">
        <ele>7</ele>
        <time>2023-11-13T09:15:39Z</time>
      </trkpt>
      <trkpt lat="47.27477" lon="-2.22647">
        <ele>7</ele>
        <time>2023-11-13T09:16:04Z</time>
      </trkpt>
      <trkpt lat="47.2748" lon="-2.22675">
        <ele>7</ele>
        <time>2023-11-13T09:16:30Z</time>
      </trkpt>
      <trkpt lat="47.27488" lon="-2.22699">
        <ele>7</ele>
        <time>2023-11-13T09:16:54Z</time>
      </trkpt>
      <trkpt lat="47.27497" lon="-2.22751">
        <ele>7</ele>
        <time>2023-11-13T09:17:42Z</time>
      </trkpt>
      <trkpt lat="47.27514" lon="-2.22761">
        <ele>7</ele>
        <time>2023-11-13T09:18:07Z</time>
      </trkpt>
      <trkpt lat="47.2752" lon="-2.22786">
        <ele>7</ele>
        <time>2023-11-13T09:18:31Z</time>
      </trkpt>
      <trkpt lat="47.27512" lon="-2.22839">
        <ele>6</ele>
        <time>2023-11-13T09:19:20Z</time>
      </trkpt>
      <trkpt lat="47.2751" lon="-2.22894">
        <ele>6</ele>
        <time>2023-11-13T09:20:10Z</time>
      </trkpt>
      <trkpt lat="47.27504" lon="-2.22948">
        <ele>6</ele>
        <time>2023-11-13T09:20:59Z</time>
      </trkpt>
      <trkpt lat="47.27498" lon="-2.22974">
        <ele>5</ele>
        <time>2023-11-13T09:21:24Z</time>
      </trkpt>
      <trkpt lat="47.2751" lon="-2.22992">
        <ele>5</ele>
        <time>2023-11-13T09:21:47Z</time>
      </trkpt>
      <trkpt lat="47.27547" lon="-2.23001">
        <ele>4</ele>
        <time>2023-11-13T09:22:37Z</time>
      </trkpt>
      <trkpt lat="47.27566" lon="-2.23002">
        <ele>4</ele>
        <time>2023-11-13T09:23:02Z</time>
      </trkpt>
      <trkpt lat="47.27621" lon="-2.2299">
        <ele>5</ele>
        <time>2023-11-13T09:24:17Z</time>
      </trkpt>
      <trkpt lat="47.27638" lon="-2.22981">
        <ele>6</ele>
        <time>2023-11-13T09:24:41Z</time>
      </trkpt>
      <trkpt lat="47.27656" lon="-2.22975">
        <ele>6</ele>
        <time>2023-11-13T09:25:05Z</time>
      </trkpt>
      <trkpt lat="47.27673" lon="-2.22965">
        <ele>6</ele>
        <time>2023-11-13T09:25:30Z</time>
      </trkpt>
      <trkpt lat="47.27687" lon="-2.22984">
        <ele>6</ele>
        <time>2023-11-13T09:25:55Z</time>
      </trkpt>
      <trkpt lat="47.27692" lon="-2.23011">
        <ele>6</ele>
        <time>2023-11-13T09:26:21Z</time>
      </trkpt>
      <trkpt lat="47.27692" lon="-2.23039">
        <ele>6</ele>
        <time>2023-11-13T09:26:46Z</time>
      </trkpt>
      <trkpt lat="47.27687" lon="-2.23094">
        <ele>6</ele>
        <time>2023-11-13T09:27:36Z</time>
      </trkpt>
      <trkpt lat="47.27688" lon="-2.23175">
        <ele>7</ele>
        <time>2023-11-13T09:28:50Z</time>
      </trkpt>
      <trkpt lat="47.277" lon="-2.23282">
        <ele>11</ele>
        <time>2023-11-13T09:30:28Z</time>
      </trkpt>
      <trkpt lat="47.27706" lon="-2.23309">
        <ele>12</ele>
        <time>2023-11-13T09:30:53Z</time>
      </trkpt>
      <trkpt lat="47.27731" lon="-2.2338">
        <ele>15</ele>
        <time>2023-11-13T09:32:06Z</time>
      </trkpt>
      <trkpt lat="47.27746" lon="-2.23459">
        <ele>16</ele>
        <time>2023-11-13T09:33:20Z</time>
      </trkpt>
      <trkpt lat="47.27746" lon="-2.23513">
        <ele>16</ele>
        <time>2023-11-13T09:34:09Z</time>
      </trkpt>
      <trkpt lat="47.27756" lon="-2.23621">
        <ele>20</ele>
        <time>2023-11-13T09:35:48Z</time>
      </trkpt>
      <trkpt lat="47.2777" lon="-2.23702">
        <ele>22</ele>
        <time>2023-11-13T09:37:03Z</time>
      </trkpt>
      <trkpt lat="47.27786" lon="-2.23751">
        <ele>24</ele>
        <time>2023-11-13T09:37:53Z</time>
      </trkpt>
      <trkpt lat="47.27793" lon="-2.23803">
        <ele>24</ele>
        <time>2023-11-13T09:38:41Z</time>
      </trkpt>
      <trkpt lat="47.27804" lon="-2.23855">
        <ele>24</ele>
        <time>2023-11-13T09:39:30Z</time>
      </trkpt>
      <trkpt lat="47.27805" lon="-2.23883">
        <ele>24</ele>
        <time>2023-11-13T09:39:55Z</time>
      </trkpt>
      <trkpt lat="47.27812" lon="-2.23909">
        <ele>24</ele>
        <time>2023-11-13T09:40:21Z</time>
      </trkpt>
      <trkpt lat="47.27823" lon="-2.23931">
        <ele>24</ele>
        <time>2023-11-13T09:40:45Z</time>
      </trkpt>
      <trkpt lat="47.27837" lon="-2.23951">
        <ele>24</ele>
        <time>2023-11-13T09:41:11Z</time>
      </trkpt>
      <trkpt lat="47.27843" lon="-2.23977">
        <ele>23</ele>
        <time>2023-11-13T09:41:36Z</time>
      </trkpt>
      <trkpt lat="47.27867" lon="-2.24018">
        <ele>23</ele>
        <time>2023-11-13T09:42:25Z</time>
      </trkpt>
      <trkpt lat="47.27888" lon="-2.24064">
        <ele>23</ele>
        <time>2023-11-13T09:43:15Z</time>
      </trkpt>
      <trkpt lat="47.27895" lon="-2.24089">
        <ele>23</ele>
        <time>2023-11-13T09:43:40Z</time>
      </trkpt>
      <trkpt lat="47.27902" lon="-2.24198">
        <ele>23</ele>
        <time>2023-11-13T09:45:19Z</time>
      </trkpt>
      <trkpt lat="47.27899" lon="-2.24279">
        <ele>23</ele>
        <time>2023-11-13T09:46:33Z</time>
      </trkpt>
      <trkpt lat="47.279" lon="-2.24308">
        <ele>23</ele>
        <time>2023-11-13T09:46:59Z</time>
      </trkpt>
      <trkpt lat="47.27918" lon="-2.24357">
        <ele>23</ele>
        <time>2023-11-13T09:47:49Z</time>
      </trkpt>
      <trkpt lat="47.27935" lon="-2.24369">
        <ele>23</ele>
        <time>2023-11-13T09:48:14Z</time>
      </trkpt>
      <trkpt lat="47.27972" lon="-2.24369">
        <ele>24</ele>
        <time>2023-11-13T09:49:04Z</time>
      </trkpt>
      <trkpt lat="47.28009" lon="-2.24374">
        <ele>25</ele>
        <time>2023-11-13T09:49:53Z</time>
      </trkpt>
      <trkpt lat="47.28027" lon="-2.24379">
        <ele>25</ele>
        <time>2023-11-13T09:50:18Z</time>
      </trkpt>
      <trkpt lat="47.28044" lon="-2.2439">
        <ele>25</ele>
        <time>2023-11-13T09:50:43Z</time>
      </trkpt>
      <trkpt lat="47.28062" lon="-2.24397">
        <ele>25</ele>
        <time>2023-11-13T09:51:07Z</time>
      </trkpt>
      <trkpt lat="47.28083" lon="-2.24472">
        <ele>25</ele>
        <time>2023-11-13T09:52:21Z</time>
      </trkpt>
      <trkpt lat="47.28087" lon="-2.24498">
        <ele>25</ele>
        <time>2023-11-13T09:52:45Z</time>
      </trkpt>
      <trkpt lat="47.28061" lon="-2.24395">
        <ele>25</ele>
        <time>2023-11-13T09:54:25Z</time>
      </trkpt>
      <trkpt lat="47.28044" lon="-2.24403">
        <ele>25</ele>
        <time>2023-11-13T09:54:48Z</time>
      </trkpt>
      <trkpt lat="47.28001" lon="-2.24494">
        <ele>25</ele>
        <time>2023-11-13T09:56:29Z</time>
      </trkpt>
      <trkpt lat="47.27978" lon="-2.24599">
        <ele>24</ele>
        <time>2023-11-13T09:58:09Z</time>
      </trkpt>
      <trkpt lat="47.27979" lon="-2.24682">
        <ele>25</ele>
        <time>2023-11-13T09:59:24Z</time>
      </trkpt>
      <trkpt lat="47.27982" lon="-2.24709">
        <ele>25</ele>
        <time>2023-11-13T09:59:49Z</time>
      </trkpt>
      <trkpt lat="47.27979" lon="-2.24736">
        <ele>25</ele>
        <time>2023-11-13T10:00:13Z</time>
      </trkpt>
      <trkpt lat="47.27972" lon="-2.24761">
        <ele>24</ele>
        <time>2023-11-13T10:00:38Z</time>
      </trkpt>
      <trkpt lat="47.28" lon="-2.24799">
        <ele>23</ele>
        <time>2023-11-13T10:01:29Z</time>
      </trkpt>
      <trkpt lat="47.28018" lon="-2.24792">
        <ele>24</ele>
        <time>2023-11-13T10:01:53Z</time>
      </trkpt>
      <trkpt lat="47.28074" lon="-2.24788">
        <ele>24</ele>
        <time>2023-11-13T10:03:08Z</time>
      </trkpt>
      <trkpt lat="47.2811" lon="-2.24793">
        <ele>22</ele>
        <time>2023-11-13T10:03:57Z</time>
      </trkpt>
      <trkpt lat="47.28129" lon="-2.24799">
        <ele>20</ele>
        <time>2023-11-13T10:04:22Z</time>
      </trkpt>
      <trkpt lat="47.28147" lon="-2.24798">
        <ele>19</ele>
        <time>2023-11-13T10:04:46Z</time>
      </trkpt>
      <trkpt lat="47.28165" lon="-2.24805">
        <ele>17</ele>
        <time>2023-11-13T10:05:11Z</time>
      </trkpt>
      <trkpt lat="47.2822" lon="-2.24817">
        <ele>13</ele>
        <time>2023-11-13T10:06:26Z</time>
      </trkpt>
      <trkpt lat="47.28239" lon="-2.24815">
        <ele>12</ele>
        <time>2023-11-13T10:06:51Z</time>
      </trkpt>
      <trkpt lat="47.28255" lon="-2.24803">
        <ele>11</ele>
        <time>2023-11-13T10:07:15Z</time>
      </trkpt>
      <trkpt lat="47.28292" lon="-2.24784">
        <ele>9</ele>
        <time>2023-11-13T10:08:07Z</time>
      </trkpt>
      <trkpt lat="47.28326" lon="-2.2476">
        <ele>8</ele>
        <time>2023-11-13T10:08:57Z</time>
      </trkpt>
      <trkpt lat="47.28343" lon="-2.24754">
        <ele>8</ele>
        <time>2023-11-13T10:09:21Z</time>
      </trkpt>
      <trkpt lat="47.2836" lon="-2.24767">
        <ele>7</ele>
        <time>2023-11-13T10:09:46Z</time>
      </trkpt>
      <trkpt lat="47.28378" lon="-2.24769">
        <ele>6</ele>
        <time>2023-11-13T10:10:10Z</time>
      </trkpt>
      <trkpt lat="47.28386" lon="-2.24823">
        <ele>5</ele>
        <time>2023-11-13T10:11:00Z</time>
      </trkpt>
      <trkpt lat="47.28389" lon="-2.24877">
        <ele>6</ele>
        <time>2023-11-13T10:11:50Z</time>
      </trkpt>
      <trkpt lat="47.28389" lon="-2.24932">
        <ele>8</ele>
        <time>2023-11-13T10:12:39Z</time>
      </trkpt>
      <trkpt lat="47.28398" lon="-2.24985">
        <ele>10</ele>
        <time>2023-11-13T10:13:29Z</time>
      </trkpt>
      <trkpt lat="47.28409" lon="-2.2515">
        <ele>18</ele>
        <time>2023-11-13T10:15:59Z</time>
      </trkpt>
      <trkpt lat="47.28408" lon="-2.25205">
        <ele>20</ele>
        <time>2023-11-13T10:16:49Z</time>
      </trkpt>
      <trkpt lat="47.28389" lon="-2.2531">
        <ele>24</ele>
        <time>2023-11-13T10:18:27Z</time>
      </trkpt>
      <trkpt lat="47.28321" lon="-2.25357">
        <ele>24</ele>
        <time>2023-11-13T10:20:07Z</time>
      </trkpt>
      <trkpt lat="47.28265" lon="-2.25368">
        <ele>20</ele>
        <time>2023-11-13T10:21:23Z</time>
      </trkpt>
      <trkpt lat="47.28249" lon="-2.25381">
        <ele>20</ele>
        <time>2023-11-13T10:21:47Z</time>
      </trkpt>
      <trkpt lat="47.28198" lon="-2.25413">
        <ele>18</ele>
        <time>2023-11-13T10:23:01Z</time>
      </trkpt>
      <trkpt lat="47.28165" lon="-2.25441">
        <ele>17</ele>
        <time>2023-11-13T10:23:52Z</time>
      </trkpt>
      <trkpt lat="47.28148" lon="-2.25449">
        <ele>16</ele>
        <time>2023-11-13T10:24:16Z</time>
      </trkpt>
      <trkpt lat="47.28116" lon="-2.25476">
        <ele>15</ele>
        <time>2023-11-13T10:25:05Z</time>
      </trkpt>
      <trkpt lat="47.28097" lon="-2.25473">
        <ele>15</ele>
        <time>2023-11-13T10:25:30Z</time>
      </trkpt>
      <trkpt lat="47.28088" lon="-2.2545">
        <ele>15</ele>
        <time>2023-11-13T10:25:54Z</time>
      </trkpt>
      <trkpt lat="47.2808" lon="-2.25396">
        <ele>14</ele>
        <time>2023-11-13T10:26:44Z</time>
      </trkpt>
      <trkpt lat="47.28079" lon="-2.25341">
        <ele>15</ele>
        <time>2023-11-13T10:27:34Z</time>
      </trkpt>
      <trkpt lat="47.28081" lon="-2.25315">
        <ele>15</ele>
        <time>2023-11-13T10:27:58Z</time>
      </trkpt>
      <trkpt lat="47.28079" lon="-2.25288">
        <ele>14</ele>
        <time>2023-11-13T10:28:23Z</time>
      </trkpt>
      <trkpt lat="47.28083" lon="-2.2526">
        <ele>14</ele>
        <time>2023-11-13T10:28:48Z</time>
      </trkpt>
      <trkpt lat="47.28093" lon="-2.25237">
        <ele>14</ele>
        <time>2023-11-13T10:29:13Z</time>
      </trkpt>
      <trkpt lat="47.28097" lon="-2.2521">
        <ele>13</ele>
        <time>2023-11-13T10:29:38Z</time>
      </trkpt>
      <trkpt lat="47.28097" lon="-2.25183">
        <ele>12</ele>
        <time>2023-11-13T10:30:03Z</time>
      </trkpt>
      <trkpt lat="47.28087" lon="-2.25158">
        <ele>10</ele>
        <time>2023-11-13T10:30:29Z</time>
      </trkpt>
      <trkpt lat="47.28072" lon="-2.25142">
        <ele>10</ele>
        <time>2023-11-13T10:30:54Z</time>
      </trkpt>
      <trkpt lat="47.28007" lon="-2.25087">
        <ele>12</ele>
        <time>2023-11-13T10:32:34Z</time>
      </trkpt>
      <trkpt lat="47.2799" lon="-2.25076">
        <ele>12</ele>
        <time>2023-11-13T10:32:58Z</time>
      </trkpt>
      <trkpt lat="47.27971" lon="-2.25073">
        <ele>12</ele>
        <time>2023-11-13T10:33:24Z</time>
      </trkpt>
      <trkpt lat="47.27954" lon="-2.25077">
        <ele>12</ele>
        <time>2023-11-13T10:33:47Z</time>
      </trkpt>
      <trkpt lat="47.27935" lon="-2.25076">
        <ele>12</ele>
        <time>2023-11-13T10:34:12Z</time>
      </trkpt>
      <trkpt lat="47.27898" lon="-2.25086">
        <ele>10</ele>
        <time>2023-11-13T10:35:02Z</time>
      </trkpt>
      <trkpt lat="47.27883" lon="-2.25071">
        <ele>11</ele>
        <time>2023-11-13T10:35:27Z</time>
      </trkpt>
      <trkpt lat="47.2783" lon="-2.25043">
        <ele>11</ele>
        <time>2023-11-13T10:36:42Z</time>
      </trkpt>
      <trkpt lat="47.27814" lon="-2.25029">
        <ele>12</ele>
        <time>2023-11-13T10:37:07Z</time>
      </trkpt>
      <trkpt lat="47.27794" lon="-2.25025">
        <ele>12</ele>
        <time>2023-11-13T10:37:33Z</time>
      </trkpt>
      <trkpt lat="47.27776" lon="-2.2503">
        <ele>12</ele>
        <time>2023-11-13T10:37:58Z</time>
      </trkpt>
      <trkpt lat="47.27759" lon="-2.25039">
        <ele>11</ele>
        <time>2023-11-13T10:38:22Z</time>
      </trkpt>
      <trkpt lat="47.2771" lon="-2.25078">
        <ele>8</ele>
        <time>2023-11-13T10:39:36Z</time>
      </trkpt>
      <trkpt lat="47.27674" lon="-2.25095">
        <ele>10</ele>
        <time>2023-11-13T10:40:27Z</time>
      </trkpt>
      <trkpt lat="47.27656" lon="-2.25101">
        <ele>10</ele>
        <time>2023-11-13T10:40:51Z</time>
      </trkpt>
      <trkpt lat="47.27637" lon="-2.25101">
        <ele>10</ele>
        <time>2023-11-13T10:41:17Z</time>
      </trkpt>
      <trkpt lat="47.27619" lon="-2.25097">
        <ele>10</ele>
        <time>2023-11-13T10:41:41Z</time>
      </trkpt>
      <trkpt lat="47.27566" lon="-2.2507">
        <ele>10</ele>
        <time>2023-11-13T10:42:56Z</time>
      </trkpt>
      <trkpt lat="47.2755" lon="-2.25058">
        <ele>11</ele>
        <time>2023-11-13T10:43:20Z</time>
      </trkpt>
      <trkpt lat="47.27522" lon="-2.25018">
        <ele>12</ele>
        <time>2023-11-13T10:44:12Z</time>
      </trkpt>
      <trkpt lat="47.27458" lon="-2.24962">
        <ele>13</ele>
        <time>2023-11-13T10:45:51Z</time>
      </trkpt>
      <trkpt lat="47.2744" lon="-2.24955">
        <ele>13</ele>
        <time>2023-11-13T10:46:16Z</time>
      </trkpt>
      <trkpt lat="47.27422" lon="-2.24959">
        <ele>13</ele>
        <time>2023-11-13T10:46:40Z</time>
      </trkpt>
      <trkpt lat="47.27405" lon="-2.24969">
        <ele>12</ele>
        <time>2023-11-13T10:47:05Z</time>
      </trkpt>
      <trkpt lat="47.27387" lon="-2.24973">
        <ele>12</ele>
        <time>2023-11-13T10:47:29Z</time>
      </trkpt>
      <trkpt lat="47.27359" lon="-2.25011">
        <ele>12</ele>
        <time>2023-11-13T10:48:20Z</time>
      </trkpt>
      <trkpt lat="47.27351" lon="-2.25036">
        <ele>12</ele>
        <time>2023-11-13T10:48:45Z</time>
      </trkpt>
      <trkpt lat="47.27348" lon="-2.25062">
        <ele>13</ele>
        <time>2023-11-13T10:49:09Z</time>
      </trkpt>
      <trkpt lat="47.27355" lon="-2.25087">
        <ele>13</ele>
        <time>2023-11-13T10:49:33Z</time>
      </trkpt>
      <trkpt lat="47.27374" lon="-2.25135">
        <ele>13</ele>
        <time>2023-11-13T10:50:24Z</time>
      </trkpt>
      <trkpt lat="47.2738" lon="-2.25162">
        <ele>14</ele>
        <time>2023-11-13T10:50:49Z</time>
      </trkpt>
      <trkpt lat="47.27395" lon="-2.2518">
        <ele>14</ele>
        <time>2023-11-13T10:51:15Z</time>
      </trkpt>
      <trkpt lat="47.27402" lon="-2.25205">
        <ele>15</ele>
        <time>2023-11-13T10:51:40Z</time>
      </trkpt>
      <trkpt lat="47.27413" lon="-2.25227">
        <ele>17</ele>
        <time>2023-11-13T10:52:04Z</time>
      </trkpt>
      <trkpt lat="47.27445" lon="-2.25324">
        <ele>17</ele>
        <time>2023-11-13T10:53:42Z</time>
      </trkpt>
      <trkpt lat="47.27449" lon="-2.25352">
        <ele>17</ele>
        <time>2023-11-13T10:54:08Z</time>
      </trkpt>
      <trkpt lat="47.27448" lon="-2.25378">
        <ele>17</ele>
        <time>2023-11-13T10:54:31Z</time>
      </trkpt>
      <trkpt lat="47.27443" lon="-2.25405">
        <ele>17</ele>
        <time>2023-11-13T10:54:57Z</time>
      </trkpt>
      <trkpt lat="47.27435" lon="-2.25428">
        <ele>17</ele>
        <time>2023-11-13T10:55:20Z</time>
      </trkpt>
      <trkpt lat="47.2745" lon="-2.25442">
        <ele>16</ele>
        <time>2023-11-13T10:55:44Z</time>
      </trkpt>
      <trkpt lat="47.2747" lon="-2.2545">
        <ele>16</ele>
        <time>2023-11-13T10:56:12Z</time>
      </trkpt>
      <trkpt lat="47.27487" lon="-2.2544">
        <ele>16</ele>
        <time>2023-11-13T10:56:36Z</time>
      </trkpt>
      <trkpt lat="47.27503" lon="-2.25452">
        <ele>15</ele>
        <time>2023-11-13T10:57:00Z</time>
      </trkpt>
      <trkpt lat="47.27534" lon="-2.25484">
        <ele>14</ele>
        <time>2023-11-13T10:57:50Z</time>
      </trkpt>
      <trkpt lat="47.27544" lon="-2.25507">
        <ele>14</ele>
        <time>2023-11-13T10:58:15Z</time>
      </trkpt>
      <trkpt lat="47.27553" lon="-2.25532">
        <ele>14</ele>
        <time>2023-11-13T10:58:41Z</time>
      </trkpt>
      <trkpt lat="47.27559" lon="-2.25559">
        <ele>15</ele>
        <time>2023-11-13T10:59:07Z</time>
      </trkpt>
      <trkpt lat="47.27567" lon="-2.25612">
        <ele>15</ele>
        <time>2023-11-13T10:59:56Z</time>
      </trkpt>
      <trkpt lat="47.27568" lon="-2.25639">
        <ele>16</ele>
        <time>2023-11-13T11:00:20Z</time>
      </trkpt>
      <trkpt lat="47.27577" lon="-2.25663">
        <ele>16</ele>
        <time>2023-11-13T11:00:45Z</time>
      </trkpt>
      <trkpt lat="47.27589" lon="-2.25686">
        <ele>16</ele>
        <time>2023-11-13T11:01:11Z</time>
      </trkpt>
      <trkpt lat="47.27599" lon="-2.25738">
        <ele>16</ele>
        <time>2023-11-13T11:02:00Z</time>
      </trkpt>
      <trkpt lat="47.27591" lon="-2.25792">
        <ele>15</ele>
        <time>2023-11-13T11:02:50Z</time>
      </trkpt>
      <trkpt lat="47.27595" lon="-2.25818">
        <ele>15</ele>
        <time>2023-11-13T11:03:14Z</time>
      </trkpt>
      <trkpt lat="47.27606" lon="-2.25839">
        <ele>15</ele>
        <time>2023-11-13T11:03:38Z</time>
      </trkpt>
      <trkpt lat="47.27625" lon="-2.25887">
        <ele>15</ele>
        <time>2023-11-13T11:04:29Z</time>
      </trkpt>
      <trkpt lat="47.2761" lon="-2.25902">
        <ele>15</ele>
        <time>2023-11-13T11:04:53Z</time>
      </trkpt>
      <trkpt lat="47.27576" lon="-2.25928">
        <ele>15</ele>
        <time>2023-11-13T11:05:44Z</time>
      </trkpt>
      <trkpt lat="47.27529" lon="-2.25974">
        <ele>17</ele>
        <time>2023-11-13T11:06:59Z</time>
      </trkpt>
      <trkpt lat="47.27514" lon="-2.25991">
        <ele>17</ele>
        <time>2023-11-13T11:07:25Z</time>
      </trkpt>
      <trkpt lat="47.27475" lon="-2.2605">
        <ele>18</ele>
        <time>2023-11-13T11:08:39Z</time>
      </trkpt>
      <trkpt lat="47.27429" lon="-2.261">
        <ele>19</ele>
        <time>2023-11-13T11:09:55Z</time>
      </trkpt>
      <trkpt lat="47.27412" lon="-2.26109">
        <ele>19</ele>
        <time>2023-11-13T11:10:20Z</time>
      </trkpt>
      <trkpt lat="47.27394" lon="-2.26113">
        <ele>20</ele>
        <time>2023-11-13T11:10:44Z</time>
      </trkpt>
      <trkpt lat="47.27377" lon="-2.2612">
        <ele>20</ele>
        <time>2023-11-13T11:11:07Z</time>
      </trkpt>
      <trkpt lat="47.27359" lon="-2.26122">
        <ele>20</ele>
        <time>2023-11-13T11:11:31Z</time>
      </trkpt>
      <trkpt lat="47.27342" lon="-2.2611">
        <ele>21</ele>
        <time>2023-11-13T11:11:57Z</time>
      </trkpt>
      <trkpt lat="47.27299" lon="-2.2602">
        <ele>20</ele>
        <time>2023-11-13T11:13:36Z</time>
      </trkpt>
      <trkpt lat="47.27262" lon="-2.25955">
        <ele>18</ele>
        <time>2023-11-13T11:14:53Z</time>
      </trkpt>
      <trkpt lat="47.27255" lon="-2.25931">
        <ele>18</ele>
        <time>2023-11-13T11:15:17Z</time>
      </trkpt>
      <trkpt lat="47.27241" lon="-2.25912">
        <ele>18</ele>
        <time>2023-11-13T11:15:42Z</time>
      </trkpt>
      <trkpt lat="47.27224" lon="-2.259">
        <ele>17</ele>
        <time>2023-11-13T11:16:07Z</time>
      </trkpt>
      <trkpt lat="47.2718" lon="-2.25846">
        <ele>17</ele>
        <time>2023-11-13T11:17:24Z</time>
      </trkpt>
      <trkpt lat="47.27138" lon="-2.2579">
        <ele>17</ele>
        <time>2023-11-13T11:18:39Z</time>
      </trkpt>
      <trkpt lat="47.27126" lon="-2.2577">
        <ele>17</ele>
        <time>2023-11-13T11:19:03Z</time>
      </trkpt>
      <trkpt lat="47.27013" lon="-2.25629">
        <ele>16</ele>
        <time>2023-11-13T11:22:21Z</time>
      </trkpt>
      <trkpt lat="47.27003" lon="-2.25607">
        <ele>16</ele>
        <time>2023-11-13T11:22:45Z</time>
      </trkpt>
      <trkpt lat="47.26964" lon="-2.25547">
        <ele>17</ele>
        <time>2023-11-13T11:24:00Z</time>
      </trkpt>
      <trkpt lat="47.2692" lon="-2.25497">
        <ele>17</ele>
        <time>2023-11-13T11:25:14Z</time>
      </trkpt>
      <trkpt lat="47.26855" lon="-2.25443">
        <ele>18</ele>
        <time>2023-11-13T11:26:54Z</time>
      </trkpt>
      <trkpt lat="47.26842" lon="-2.25423">
        <ele>19</ele>
        <time>2023-11-13T11:27:19Z</time>
      </trkpt>
      <trkpt lat="47.26828" lon="-2.2537">
        <ele>18</ele>
        <time>2023-11-13T11:28:11Z</time>
      </trkpt>
      <trkpt lat="47.26817" lon="-2.25347">
        <ele>18</ele>
        <time>2023-11-13T11:28:36Z</time>
      </trkpt>
      <trkpt lat="47.26798" lon="-2.25348">
        <ele>19</ele>
        <time>2023-11-13T11:29:01Z</time>
      </trkpt>
      <trkpt lat="47.26781" lon="-2.25355">
        <ele>19</ele>
        <time>2023-11-13T11:29:25Z</time>
      </trkpt>
      <trkpt lat="47.26765" lon="-2.25339">
        <ele>20</ele>
        <time>2023-11-13T11:29:51Z</time>
      </trkpt>
      <trkpt lat="47.26755" lon="-2.25316">
        <ele>22</ele>
        <time>2023-11-13T11:30:16Z</time>
      </trkpt>
      <trkpt lat="47.26751" lon="-2.25342">
        <ele>21</ele>
        <time>2023-11-13T11:30:40Z</time>
      </trkpt>
      <trkpt lat="47.26723" lon="-2.25379">
        <ele>20</ele>
        <time>2023-11-13T11:31:30Z</time>
      </trkpt>
      <trkpt lat="47.26699" lon="-2.25419">
        <ele>19</ele>
        <time>2023-11-13T11:32:18Z</time>
      </trkpt>
      <trkpt lat="47.26685" lon="-2.25436">
        <ele>19</ele>
        <time>2023-11-13T11:32:42Z</time>
      </trkpt>
      <trkpt lat="47.26674" lon="-2.25457">
        <ele>19</ele>
        <time>2023-11-13T11:33:06Z</time>
      </trkpt>
      <trkpt lat="47.26579" lon="-2.25586">
        <ele>23</ele>
        <time>2023-11-13T11:35:59Z</time>
      </trkpt>
      <trkpt lat="47.26567" lon="-2.25606">
        <ele>24</ele>
        <time>2023-11-13T11:36:23Z</time>
      </trkpt>
      <trkpt lat="47.26552" lon="-2.25621">
        <ele>24</ele>
        <time>2023-11-13T11:36:47Z</time>
      </trkpt>
      <trkpt lat="47.2654" lon="-2.25643">
        <ele>25</ele>
        <time>2023-11-13T11:37:13Z</time>
      </trkpt>
      <trkpt lat="47.26526" lon="-2.2566">
        <ele>25</ele>
        <time>2023-11-13T11:37:37Z</time>
      </trkpt>
      <trkpt lat="47.26473" lon="-2.25737">
        <ele>25</ele>
        <time>2023-11-13T11:39:16Z</time>
      </trkpt>
      <trkpt lat="47.26454" lon="-2.25741">
        <ele>25</ele>
        <time>2023-11-13T11:39:42Z</time>
      </trkpt>
      <trkpt lat="47.26437" lon="-2.25751">
        <ele>25</ele>
        <time>2023-11-13T11:40:06Z</time>
      </trkpt>
      <trkpt lat="47.26424" lon="-2.2577">
        <ele>25</ele>
        <time>2023-11-13T11:40:31Z</time>
      </trkpt>
      <trkpt lat="47.26407" lon="-2.25781">
        <ele>26</ele>
        <time>2023-11-13T11:40:56Z</time>
      </trkpt>
      <trkpt lat="47.26334" lon="-2.25753">
        <ele>25</ele>
        <time>2023-11-13T11:42:36Z</time>
      </trkpt>
      <trkpt lat="47.26297" lon="-2.25749">
        <ele>25</ele>
        <time>2023-11-13T11:43:26Z</time>
      </trkpt>
      <trkpt lat="47.2626" lon="-2.2575">
        <ele>24</ele>
        <time>2023-11-13T11:44:15Z</time>
      </trkpt>
      <trkpt lat="47.26242" lon="-2.25756">
        <ele>24</ele>
        <time>2023-11-13T11:44:40Z</time>
      </trkpt>
      <trkpt lat="47.26222" lon="-2.25759">
        <ele>24</ele>
        <time>2023-11-13T11:45:07Z</time>
      </trkpt>
      <trkpt lat="47.26189" lon="-2.25785">
        <ele>25</ele>
        <time>2023-11-13T11:45:56Z</time>
      </trkpt>
      <trkpt lat="47.26171" lon="-2.25795">
        <ele>25</ele>
        <time>2023-11-13T11:46:22Z</time>
      </trkpt>
      <trkpt lat="47.26153" lon="-2.258">
        <ele>25</ele>
        <time>2023-11-13T11:46:47Z</time>
      </trkpt>
      <trkpt lat="47.26137" lon="-2.25816">
        <ele>25</ele>
        <time>2023-11-13T11:47:12Z</time>
      </trkpt>
      <trkpt lat="47.26084" lon="-2.2584">
        <ele>25</ele>
        <time>2023-11-13T11:48:26Z</time>
      </trkpt>
      <trkpt lat="47.26074" lon="-2.25863">
        <ele>26</ele>
        <time>2023-11-13T11:48:51Z</time>
      </trkpt>
      <trkpt lat="47.26059" lon="-2.2588">
        <ele>27</ele>
        <time>2023-11-13T11:49:16Z</time>
      </trkpt>
      <trkpt lat="47.26043" lon="-2.25868">
        <ele>27</ele>
        <time>2023-11-13T11:49:40Z</time>
      </trkpt>
      <trkpt lat="47.26025" lon="-2.25877">
        <ele>27</ele>
        <time>2023-11-13T11:50:06Z</time>
      </trkpt>
      <trkpt lat="47.26008" lon="-2.25889">
        <ele>28</ele>
        <time>2023-11-13T11:50:31Z</time>
      </trkpt>
      <trkpt lat="47.25972" lon="-2.25904">
        <ele>29</ele>
        <time>2023-11-13T11:51:21Z</time>
      </trkpt>
      <trkpt lat="47.25937" lon="-2.25924">
        <ele>31</ele>
        <time>2023-11-13T11:52:11Z</time>
      </trkpt>
      <trkpt lat="47.25883" lon="-2.25939">
        <ele>32</ele>
        <time>2023-11-13T11:53:24Z</time>
      </trkpt>
      <trkpt lat="47.25864" lon="-2.25936">
        <ele>33</ele>
        <time>2023-11-13T11:53:50Z</time>
      </trkpt>
      <trkpt lat="47.25845" lon="-2.25941">
        <ele>33</ele>
        <time>2023-11-13T11:54:15Z</time>
      </trkpt>
      <trkpt lat="47.25752" lon="-2.25943">
        <ele>36</ele>
        <time>2023-11-13T11:56:20Z</time>
      </trkpt>
      <trkpt lat="47.25733" lon="-2.25949">
        <ele>36</ele>
        <time>2023-11-13T11:56:46Z</time>
      </trkpt>
      <trkpt lat="47.25714" lon="-2.25947">
        <ele>35</ele>
        <time>2023-11-13T11:57:11Z</time>
      </trkpt>
      <trkpt lat="47.25695" lon="-2.25952">
        <ele>35</ele>
        <time>2023-11-13T11:57:37Z</time>
      </trkpt>
      <trkpt lat="47.25677" lon="-2.2596">
        <ele>36</ele>
        <time>2023-11-13T11:58:02Z</time>
      </trkpt>
      <trkpt lat="47.25665" lon="-2.25979">
        <ele>36</ele>
        <time>2023-11-13T11:58:25Z</time>
      </trkpt>
      <trkpt lat="47.25646" lon="-2.25974">
        <ele>35</ele>
        <time>2023-11-13T11:58:51Z</time>
      </trkpt>
      <trkpt lat="47.25628" lon="-2.25966">
        <ele>35</ele>
        <time>2023-11-13T11:59:16Z</time>
      </trkpt>
      <trkpt lat="47.25609" lon="-2.25972">
        <ele>34</ele>
        <time>2023-11-13T11:59:42Z</time>
      </trkpt>
      <trkpt lat="47.25571" lon="-2.25974">
        <ele>33</ele>
        <time>2023-11-13T12:00:33Z</time>
      </trkpt>
      <trkpt lat="47.25554" lon="-2.25983">
        <ele>32</ele>
        <time>2023-11-13T12:00:57Z</time>
      </trkpt>
      <trkpt lat="47.25516" lon="-2.25983">
        <ele>29</ele>
        <time>2023-11-13T12:01:48Z</time>
      </trkpt>
      <trkpt lat="47.25508" lon="-2.26006">
        <ele>29</ele>
        <time>2023-11-13T12:02:11Z</time>
      </trkpt>
      <trkpt lat="47.25507" lon="-2.2606">
        <ele>29</ele>
        <time>2023-11-13T12:03:00Z</time>
      </trkpt>
      <trkpt lat="47.25504" lon="-2.26087">
        <ele>29</ele>
        <time>2023-11-13T12:03:25Z</time>
      </trkpt>
      <trkpt lat="47.25494" lon="-2.26139">
        <ele>31</ele>
        <time>2023-11-13T12:04:14Z</time>
      </trkpt>
      <trkpt lat="47.25477" lon="-2.26187">
        <ele>33</ele>
        <time>2023-11-13T12:05:03Z</time>
      </trkpt>
      <trkpt lat="47.25472" lon="-2.26213">
        <ele>35</ele>
        <time>2023-11-13T12:05:27Z</time>
      </trkpt>
      <trkpt lat="47.25469" lon="-2.26269">
        <ele>36</ele>
        <time>2023-11-13T12:06:18Z</time>
      </trkpt>
      <trkpt lat="47.25454" lon="-2.26319">
        <ele>34</ele>
        <time>2023-11-13T12:07:08Z</time>
      </trkpt>
      <trkpt lat="47.25454" lon="-2.26374">
        <ele>34</ele>
        <time>2023-11-13T12:07:57Z</time>
      </trkpt>
      <trkpt lat="47.25448" lon="-2.26399">
        <ele>33</ele>
        <time>2023-11-13T12:08:21Z</time>
      </trkpt>
      <trkpt lat="47.25448" lon="-2.26426">
        <ele>33</ele>
        <time>2023-11-13T12:08:46Z</time>
      </trkpt>
      <trkpt lat="47.25455" lon="-2.26452">
        <ele>34</ele>
        <time>2023-11-13T12:09:11Z</time>
      </trkpt>
      <trkpt lat="47.25458" lon="-2.26479">
        <ele>34</ele>
        <time>2023-11-13T12:09:36Z</time>
      </trkpt>
      <trkpt lat="47.2547" lon="-2.26498">
        <ele>35</ele>
        <time>2023-11-13T12:10:00Z</time>
      </trkpt>
      <trkpt lat="47.2548" lon="-2.26521">
        <ele>35</ele>
        <time>2023-11-13T12:10:24Z</time>
      </trkpt>
      <trkpt lat="47.25484" lon="-2.26547">
        <ele>35</ele>
        <time>2023-11-13T12:10:48Z</time>
      </trkpt>
      <trkpt lat="47.25493" lon="-2.26571">
        <ele>35</ele>
        <time>2023-11-13T12:11:13Z</time>
      </trkpt>
      <trkpt lat="47.25489" lon="-2.26627">
        <ele>35</ele>
        <time>2023-11-13T12:12:04Z</time>
      </trkpt>
      <trkpt lat="47.2549" lon="-2.26654">
        <ele>34</ele>
        <time>2023-11-13T12:12:29Z</time>
      </trkpt>
      <trkpt lat="47.25487" lon="-2.26682">
        <ele>35</ele>
        <time>2023-11-13T12:12:54Z</time>
      </trkpt>
      <trkpt lat="47.25479" lon="-2.26707">
        <ele>35</ele>
        <time>2023-11-13T12:13:19Z</time>
      </trkpt>
      <trkpt lat="47.25461" lon="-2.26702">
        <ele>35</ele>
        <time>2023-11-13T12:13:44Z</time>
      </trkpt>
      <trkpt lat="47.25435" lon="-2.26661">
        <ele>35</ele>
        <time>2023-11-13T12:14:35Z</time>
      </trkpt>
      <trkpt lat="47.25426" lon="-2.26638">
        <ele>35</ele>
        <time>2023-11-13T12:14:59Z</time>
      </trkpt>
      <trkpt lat="47.25391" lon="-2.26572">
        <ele>34</ele>
        <time>2023-11-13T12:16:15Z</time>
      </trkpt>
      <trkpt lat="47.2536" lon="-2.26504">
        <ele>34</ele>
        <time>2023-11-13T12:17:29Z</time>
      </trkpt>
      <trkpt lat="47.25341" lon="-2.26456">
        <ele>36</ele>
        <time>2023-11-13T12:18:19Z</time>
      </trkpt>
      <trkpt lat="47.25316" lon="-2.26351">
        <ele>38</ele>
        <time>2023-11-13T12:20:00Z</time>
      </trkpt>
      <trkpt lat="47.25307" lon="-2.26215">
        <ele>37</ele>
        <time>2023-11-13T12:22:04Z</time>
      </trkpt>
      <trkpt lat="47.25292" lon="-2.26108">
        <ele>33</ele>
        <time>2023-11-13T12:23:43Z</time>
      </trkpt>
      <trkpt lat="47.25274" lon="-2.26108">
        <ele>32</ele>
        <time>2023-11-13T12:24:07Z</time>
      </trkpt>
      <trkpt lat="47.25255" lon="-2.26113">
        <ele>32</ele>
        <time>2023-11-13T12:24:32Z</time>
      </trkpt>
      <trkpt lat="47.2524" lon="-2.26128">
        <ele>32</ele>
        <time>2023-11-13T12:24:57Z</time>
      </trkpt>
      <trkpt lat="47.25203" lon="-2.26189">
        <ele>34</ele>
        <time>2023-11-13T12:26:11Z</time>
      </trkpt>
      <trkpt lat="47.25177" lon="-2.26228">
        <ele>35</ele>
        <time>2023-11-13T12:27:00Z</time>
      </trkpt>
      <trkpt lat="47.25162" lon="-2.26245">
        <ele>35</ele>
        <time>2023-11-13T12:27:25Z</time>
      </trkpt>
      <trkpt lat="47.25137" lon="-2.26285">
        <ele>34</ele>
        <time>2023-11-13T12:28:15Z</time>
      </trkpt>
      <trkpt lat="47.25081" lon="-2.2636">
        <ele>33</ele>
        <time>2023-11-13T12:29:56Z</time>
      </trkpt>
      <trkpt lat="47.25065" lon="-2.26375">
        <ele>33</ele>
        <time>2023-11-13T12:30:21Z</time>
      </trkpt>
      <trkpt lat="47.25053" lon="-2.26395">
        <ele>33</ele>
        <time>2023-11-13T12:30:45Z</time>
      </trkpt>
      <trkpt lat="47.25036" lon="-2.26408">
        <ele>33</ele>
        <time>2023-11-13T12:31:11Z</time>
      </trkpt>
      <trkpt lat="47.25019" lon="-2.26416">
        <ele>33</ele>
        <time>2023-11-13T12:31:35Z</time>
      </trkpt>
      <trkpt lat="47.25" lon="-2.2642">
        <ele>33</ele>
        <time>2023-11-13T12:32:00Z</time>
      </trkpt>
      <trkpt lat="47.24964" lon="-2.26435">
        <ele>33</ele>
        <time>2023-11-13T12:32:50Z</time>
      </trkpt>
      <trkpt lat="47.2493" lon="-2.26453">
        <ele>33</ele>
        <time>2023-11-13T12:33:38Z</time>
      </trkpt>
      <trkpt lat="47.24912" lon="-2.26445">
        <ele>33</ele>
        <time>2023-11-13T12:34:03Z</time>
      </trkpt>
      <trkpt lat="47.24858" lon="-2.26462">
        <ele>34</ele>
        <time>2023-11-13T12:35:17Z</time>
      </trkpt>
      <trkpt lat="47.2484" lon="-2.26465">
        <ele>34</ele>
        <time>2023-11-13T12:35:41Z</time>
      </trkpt>
      <trkpt lat="47.24832" lon="-2.26489">
        <ele>35</ele>
        <time>2023-11-13T12:36:06Z</time>
      </trkpt>
      <trkpt lat="47.24833" lon="-2.26515">
        <ele>35</ele>
        <time>2023-11-13T12:36:29Z</time>
      </trkpt>
      <trkpt lat="47.24829" lon="-2.26542">
        <ele>35</ele>
        <time>2023-11-13T12:36:54Z</time>
      </trkpt>
      <trkpt lat="47.24755" lon="-2.26554">
        <ele>35</ele>
        <time>2023-11-13T12:38:33Z</time>
      </trkpt>
      <trkpt lat="47.24682" lon="-2.26539">
        <ele>35</ele>
        <time>2023-11-13T12:40:12Z</time>
      </trkpt>
      <trkpt lat="47.24665" lon="-2.26551">
        <ele>35</ele>
        <time>2023-11-13T12:40:37Z</time>
      </trkpt>
      <trkpt lat="47.24655" lon="-2.26573">
        <ele>35</ele>
        <time>2023-11-13T12:41:01Z</time>
      </trkpt>
      <trkpt lat="47.24642" lon="-2.26594">
        <ele>35</ele>
        <time>2023-11-13T12:41:27Z</time>
      </trkpt>
      <trkpt lat="47.24625" lon="-2.26607">
        <ele>35</ele>
        <time>2023-11-13T12:41:52Z</time>
      </trkpt>
      <trkpt lat="47.24607" lon="-2.26611">
        <ele>36</ele>
        <time>2023-11-13T12:42:17Z</time>
      </trkpt>
      <trkpt lat="47.24569" lon="-2.26612">
        <ele>36</ele>
        <time>2023-11-13T12:43:07Z</time>
      </trkpt>
      <trkpt lat="47.24551" lon="-2.26607">
        <ele>36</ele>
        <time>2023-11-13T12:43:32Z</time>
      </trkpt>
      <trkpt lat="47.24541" lon="-2.2663">
        <ele>36</ele>
        <time>2023-11-13T12:43:57Z</time>
      </trkpt>
      <trkpt lat="47.24534" lon="-2.26656">
        <ele>36</ele>
        <time>2023-11-13T12:44:22Z</time>
      </trkpt>
      <trkpt lat="47.24519" lon="-2.26674">
        <ele>35</ele>
        <time>2023-11-13T12:44:48Z</time>
      </trkpt>
      <trkpt lat="47.2445" lon="-2.26712">
        <ele>34</ele>
        <time>2023-11-13T12:46:26Z</time>
      </trkpt>
      <trkpt lat="47.24436" lon="-2.26731">
        <ele>33</ele>
        <time>2023-11-13T12:46:51Z</time>
      </trkpt>
      <trkpt lat="47.2444" lon="-2.26757">
        <ele>32</ele>
        <time>2023-11-13T12:47:16Z</time>
      </trkpt>
      <trkpt lat="47.24453" lon="-2.26776">
        <ele>32</ele>
        <time>2023-11-13T12:47:40Z</time>
      </trkpt>
      <trkpt lat="47.24511" lon="-2.26843">
        <ele>31</ele>
        <time>2023-11-13T12:49:18Z</time>
      </trkpt>
      <trkpt lat="47.24524" lon="-2.26862">
        <ele>31</ele>
        <time>2023-11-13T12:49:43Z</time>
      </trkpt>
      <trkpt lat="47.24527" lon="-2.26888">
        <ele>31</ele>
        <time>2023-11-13T12:50:07Z</time>
      </trkpt>
      <trkpt lat="47.24521" lon="-2.26914">
        <ele>30</ele>
        <time>2023-11-13T12:50:32Z</time>
      </trkpt>
      <trkpt lat="47.24506" lon="-2.2693">
        <ele>29</ele>
        <time>2023-11-13T12:50:56Z</time>
      </trkpt>
      <trkpt lat="47.24489" lon="-2.26942">
        <ele>28</ele>
        <time>2023-11-13T12:51:21Z</time>
      </trkpt>
      <trkpt lat="47.24479" lon="-2.26965">
        <ele>27</ele>
        <time>2023-11-13T12:51:46Z</time>
      </trkpt>
      <trkpt lat="47.24461" lon="-2.26977">
        <ele>27</ele>
        <time>2023-11-13T12:52:13Z</time>
      </trkpt>
      <trkpt lat="47.24443" lon="-2.26984">
        <ele>27</ele>
        <time>2023-11-13T12:52:37Z</time>
      </trkpt>
      <trkpt lat="47.24426" lon="-2.26996">
        <ele>26</ele>
        <time>2023-11-13T12:53:03Z</time>
      </trkpt>
      <trkpt lat="47.24417" lon="-2.27021">
        <ele>26</ele>
        <time>2023-11-13T12:53:28Z</time>
      </trkpt>
      <trkpt lat="47.24417" lon="-2.27049">
        <ele>25</ele>
        <time>2023-11-13T12:53:54Z</time>
      </trkpt>
      <trkpt lat="47.24413" lon="-2.27075">
        <ele>24</ele>
        <time>2023-11-13T12:54:18Z</time>
      </trkpt>
      <trkpt lat="47.24405" lon="-2.271">
        <ele>24</ele>
        <time>2023-11-13T12:54:43Z</time>
      </trkpt>
      <trkpt lat="47.24391" lon="-2.27118">
        <ele>23</ele>
        <time>2023-11-13T12:55:07Z</time>
      </trkpt>
      <trkpt lat="47.24375" lon="-2.27132">
        <ele>23</ele>
        <time>2023-11-13T12:55:32Z</time>
      </trkpt>
      <trkpt lat="47.24358" lon="-2.27142">
        <ele>24</ele>
        <time>2023-11-13T12:55:57Z</time>
      </trkpt>
      <trkpt lat="47.24345" lon="-2.2716">
        <ele>24</ele>
        <time>2023-11-13T12:56:21Z</time>
      </trkpt>
      <trkpt lat="47.24326" lon="-2.27162">
        <ele>24</ele>
        <time>2023-11-13T12:56:46Z</time>
      </trkpt>
      <trkpt lat="47.24295" lon="-2.27191">
        <ele>22</ele>
        <time>2023-11-13T12:57:35Z</time>
      </trkpt>
      <trkpt lat="47.24279" lon="-2.27243">
        <ele>21</ele>
        <time>2023-11-13T12:58:27Z</time>
      </trkpt>
      <trkpt lat="47.2425" lon="-2.2728">
        <ele>20</ele>
        <time>2023-11-13T12:59:18Z</time>
      </trkpt>
      <trkpt lat="47.24218" lon="-2.27308">
        <ele>19</ele>
        <time>2023-11-13T13:00:08Z</time>
      </trkpt>
      <trkpt lat="47.242" lon="-2.27318">
        <ele>19</ele>
        <time>2023-11-13T13:00:33Z</time>
      </trkpt>
      <trkpt lat="47.24168" lon="-2.27344">
        <ele>18</ele>
        <time>2023-11-13T13:01:22Z</time>
      </trkpt>
      <trkpt lat="47.24149" lon="-2.27347">
        <ele>17</ele>
        <time>2023-11-13T13:01:48Z</time>
      </trkpt>
      <trkpt lat="47.2413" lon="-2.27354">
        <ele>16</ele>
        <time>2023-11-13T13:02:14Z</time>
      </trkpt>
      <trkpt lat="47.24112" lon="-2.27354">
        <ele>16</ele>
        <time>2023-11-13T13:02:38Z</time>
      </trkpt>
      <trkpt lat="47.24099" lon="-2.27335">
        <ele>15</ele>
        <time>2023-11-13T13:03:02Z</time>
      </trkpt>
      <trkpt lat="47.2409" lon="-2.27358">
        <ele>15</ele>
        <time>2023-11-13T13:03:26Z</time>
      </trkpt>
      <trkpt lat="47.24087" lon="-2.27384">
        <ele>15</ele>
        <time>2023-11-13T13:03:50Z</time>
      </trkpt>
      <trkpt lat="47.24065" lon="-2.27428">
        <ele>15</ele>
        <time>2023-11-13T13:04:40Z</time>
      </trkpt>
      <trkpt lat="47.24051" lon="-2.27445">
        <ele>14</ele>
        <time>2023-11-13T13:05:04Z</time>
      </trkpt>
      <trkpt lat="47.24042" lon="-2.27469">
        <ele>15</ele>
        <time>2023-11-13T13:05:29Z</time>
      </trkpt>
      <trkpt lat="47.24041" lon="-2.27496">
        <ele>16</ele>
        <time>2023-11-13T13:05:53Z</time>
      </trkpt>
      <trkpt lat="47.24033" lon="-2.27548">
        <ele>18</ele>
        <time>2023-11-13T13:06:41Z</time>
      </trkpt>
      <trkpt lat="47.24028" lon="-2.27602">
        <ele>19</ele>
        <time>2023-11-13T13:07:31Z</time>
      </trkpt>
      <trkpt lat="47.24033" lon="-2.27628">
        <ele>19</ele>
        <time>2023-11-13T13:07:55Z</time>
      </trkpt>
      <trkpt lat="47.24044" lon="-2.27649">
        <ele>18</ele>
        <time>2023-11-13T13:08:19Z</time>
      </trkpt>
      <trkpt lat="47.24099" lon="-2.27654">
        <ele>17</ele>
        <time>2023-11-13T13:09:33Z</time>
      </trkpt>
      <trkpt lat="47.24118" lon="-2.27658">
        <ele>17</ele>
        <time>2023-11-13T13:09:58Z</time>
      </trkpt>
      <trkpt lat="47.24134" lon="-2.27673">
        <ele>17</ele>
        <time>2023-11-13T13:10:24Z</time>
      </trkpt>
      <trkpt lat="47.24146" lon="-2.27695">
        <ele>16</ele>
        <time>2023-11-13T13:10:49Z</time>
      </trkpt>
      <trkpt lat="47.24154" lon="-2.2772">
        <ele>16</ele>
        <time>2023-11-13T13:11:14Z</time>
      </trkpt>
      <trkpt lat="47.24158" lon="-2.27748">
        <ele>15</ele>
        <time>2023-11-13T13:11:40Z</time>
      </trkpt>
      <trkpt lat="47.24151" lon="-2.27774">
        <ele>13</ele>
        <time>2023-11-13T13:12:06Z</time>
      </trkpt>
      <trkpt lat="47.24116" lon="-2.27797">
        <ele>11</ele>
        <time>2023-11-13T13:12:57Z</time>
      </trkpt>
      <trkpt lat="47.24102" lon="-2.27812">
        <ele>10</ele>
        <time>2023-11-13T13:13:20Z</time>
      </trkpt>
      <trkpt lat="47.24084" lon="-2.27821">
        <ele>9</ele>
        <time>2023-11-13T13:13:45Z</time>
      </trkpt>
      <trkpt lat="47.24068" lon="-2.27835">
        <ele>8</ele>
        <time>2023-11-13T13:14:10Z</time>
      </trkpt>
      <trkpt lat="47.24015" lon="-2.27859">
        <ele>7</ele>
        <time>2023-11-13T13:15:24Z</time>
      </trkpt>
      <trkpt lat="47.23979" lon="-2.27869">
        <ele>6</ele>
        <time>2023-11-13T13:16:13Z</time>
      </trkpt>
      <trkpt lat="47.23905" lon="-2.27895">
        <ele>5</ele>
        <time>2023-11-13T13:17:54Z</time>
      </trkpt>
      <trkpt lat="47.23887" lon="-2.27906">
        <ele>6</ele>
        <time>2023-11-13T13:18:20Z</time>
      </trkpt>
      <trkpt lat="47.23872" lon="-2.2792">
        <ele>6</ele>
        <time>2023-11-13T13:18:44Z</time>
      </trkpt>
      <trkpt lat="47.23847" lon="-2.27961">
        <ele>7</ele>
        <time>2023-11-13T13:19:34Z</time>
      </trkpt>
      <trkpt lat="47.23841" lon="-2.27986">
        <ele>7</ele>
        <time>2023-11-13T13:19:58Z</time>
      </trkpt>
      <trkpt lat="47.2382" lon="-2.28031">
        <ele>7</ele>
        <time>2023-11-13T13:20:48Z</time>
      </trkpt>
      <trkpt lat="47.23817" lon="-2.28058">
        <ele>7</ele>
        <time>2023-11-13T13:21:12Z</time>
      </trkpt>
      <trkpt lat="47.23823" lon="-2.28111">
        <ele>9</ele>
        <time>2023-11-13T13:22:01Z</time>
      </trkpt>
      <trkpt lat="47.23819" lon="-2.28137">
        <ele>10</ele>
        <time>2023-11-13T13:22:25Z</time>
      </trkpt>
      <trkpt lat="47.2382" lon="-2.28191">
        <ele>13</ele>
        <time>2023-11-13T13:23:14Z</time>
      </trkpt>
      <trkpt lat="47.23817" lon="-2.28219">
        <ele>13</ele>
        <time>2023-11-13T13:23:40Z</time>
      </trkpt>
      <trkpt lat="47.23824" lon="-2.28245">
        <ele>15</ele>
        <time>2023-11-13T13:24:05Z</time>
      </trkpt>
      <trkpt lat="47.23825" lon="-2.28274">
        <ele>17</ele>
        <time>2023-11-13T13:24:32Z</time>
      </trkpt>
      <trkpt lat="47.2381" lon="-2.2829">
        <ele>15</ele>
        <time>2023-11-13T13:24:56Z</time>
      </trkpt>
      <trkpt lat="47.23804" lon="-2.28317">
        <ele>15</ele>
        <time>2023-11-13T13:25:22Z</time>
      </trkpt>
      <trkpt lat="47.23803" lon="-2.28344">
        <ele>16</ele>
        <time>2023-11-13T13:25:46Z</time>
      </trkpt>
      <trkpt lat="47.238" lon="-2.28336">
        <ele>15</ele>
        <time>2023-11-13T13:25:55Z</time>
      </trkpt>
      <trkpt lat="47.23806" lon="-2.2831">
        <ele>15</ele>
        <time>2023-11-13T13:26:20Z</time>
      </trkpt>
      <trkpt lat="47.23824" lon="-2.28261">
        <ele>16</ele>
        <time>2023-11-13T13:27:10Z</time>
      </trkpt>
      <trkpt lat="47.23817" lon="-2.28206">
        <ele>13</ele>
        <time>2023-11-13T13:28:01Z</time>
      </trkpt>
      <trkpt lat="47.23818" lon="-2.28151">
        <ele>11</ele>
        <time>2023-11-13T13:28:51Z</time>
      </trkpt>
      <trkpt lat="47.23823" lon="-2.28124">
        <ele>10</ele>
        <time>2023-11-13T13:29:16Z</time>
      </trkpt>
      <trkpt lat="47.23821" lon="-2.28098">
        <ele>8</ele>
        <time>2023-11-13T13:29:40Z</time>
      </trkpt>
      <trkpt lat="47.23804" lon="-2.2805">
        <ele>6</ele>
        <time>2023-11-13T13:30:29Z</time>
      </trkpt>
      <trkpt lat="47.23802" lon="-2.28023">
        <ele>6</ele>
        <time>2023-11-13T13:30:53Z</time>
      </trkpt>
      <trkpt lat="47.23819" lon="-2.28017">
        <ele>7</ele>
        <time>2023-11-13T13:31:17Z</time>
      </trkpt>
      <trkpt lat="47.23829" lon="-2.27993">
        <ele>8</ele>
        <time>2023-11-13T13:31:42Z</time>
      </trkpt>
      <trkpt lat="47.23811" lon="-2.28001">
        <ele>6</ele>
        <time>2023-11-13T13:32:07Z</time>
      </trkpt>
      <trkpt lat="47.23798" lon="-2.27983">
        <ele>5</ele>
        <time>2023-11-13T13:32:31Z</time>
      </trkpt>
      <trkpt lat="47.23799" lon="-2.27928">
        <ele>5</ele>
        <time>2023-11-13T13:33:21Z</time>
      </trkpt>
      <trkpt lat="47.23789" lon="-2.27846">
        <ele>6</ele>
        <time>2023-11-13T13:34:36Z</time>
      </trkpt>
      <trkpt lat="47.23798" lon="-2.27822">
        <ele>7</ele>
        <time>2023-11-13T13:35:01Z</time>
      </trkpt>
      <trkpt lat="47.23788" lon="-2.27799">
        <ele>8</ele>
        <time>2023-11-13T13:35:26Z</time>
      </trkpt>
      <trkpt lat="47.23775" lon="-2.27778">
        <ele>7</ele>
        <time>2023-11-13T13:35:52Z</time>
      </trkpt>
      <trkpt lat="47.23779" lon="-2.27752">
        <ele>9</ele>
        <time>2023-11-13T13:36:16Z</time>
      </trkpt>
      <trkpt lat="47.23773" lon="-2.27726">
        <ele>8</ele>
        <time>2023-11-13T13:36:41Z</time>
      </trkpt>
      <trkpt lat="47.23783" lon="-2.27703">
        <ele>9</ele>
        <time>2023-11-13T13:37:06Z</time>
      </trkpt>
      <trkpt lat="47.23796" lon="-2.27652">
        <ele>10</ele>
        <time>2023-11-13T13:37:55Z</time>
      </trkpt>
      <trkpt lat="47.23833" lon="-2.2765">
        <ele>15</ele>
        <time>2023-11-13T13:38:44Z</time>
      </trkpt>
      <trkpt lat="47.23849" lon="-2.27638">
        <ele>14</ele>
        <time>2023-11-13T13:39:08Z</time>
      </trkpt>
      <trkpt lat="47.23867" lon="-2.2763">
        <ele>14</ele>
        <time>2023-11-13T13:39:33Z</time>
      </trkpt>
      <trkpt lat="47.23853" lon="-2.2761">
        <ele>11</ele>
        <time>2023-11-13T13:39:59Z</time>
      </trkpt>
      <trkpt lat="47.23867" lon="-2.27592">
        <ele>10</ele>
        <time>2023-11-13T13:40:24Z</time>
      </trkpt>
      <trkpt lat="47.23899" lon="-2.27565">
        <ele>10</ele>
        <time>2023-11-13T13:41:13Z</time>
      </trkpt>
      <trkpt lat="47.23913" lon="-2.27547">
        <ele>9</ele>
        <time>2023-11-13T13:41:38Z</time>
      </trkpt>
      <trkpt lat="47.2393" lon="-2.27533">
        <ele>9</ele>
        <time>2023-11-13T13:42:04Z</time>
      </trkpt>
      <trkpt lat="47.23939" lon="-2.2751">
        <ele>7</ele>
        <time>2023-11-13T13:42:28Z</time>
      </trkpt>
      <trkpt lat="47.23941" lon="-2.27484">
        <ele>6</ele>
        <time>2023-11-13T13:42:52Z</time>
      </trkpt>
      <trkpt lat="47.23925" lon="-2.2747">
        <ele>3</ele>
        <time>2023-11-13T13:43:17Z</time>
      </trkpt>
      <trkpt lat="47.23915" lon="-2.27447">
        <ele>2</ele>
        <time>2023-11-13T13:43:42Z</time>
      </trkpt>
      <trkpt lat="47.23914" lon="-2.27366">
        <time>2023-11-13T13:44:55Z</time>
      </trkpt>
      <trkpt lat="47.23917" lon="-2.2734">
        <ele>3.2</ele>
        <time>2023-11-13T13:45:19Z</time>
      </trkpt>
      <trkpt lat="47.23917" lon="-2.27312">
        <ele>3.8</ele>
        <time>2023-11-13T13:45:44Z</time>
      </trkpt>
      <trkpt lat="47.23908" lon="-2.27203">
        <ele>1.7</ele>
        <time>2023-11-13T13:47:24Z</time>
      </trkpt>
      <trkpt lat="47.23913" lon="-2.27177">
        <ele>2</ele>
        <time>2023-11-13T13:47:48Z</time>
      </trkpt>
      <trkpt lat="47.23921" lon="-2.27152">
        <ele>1</ele>
        <time>2023-11-13T13:48:13Z</time>
      </trkpt>
      <trkpt lat="47.23941" lon="-2.27106">
        <ele>3</ele>
        <time>2023-11-13T13:49:03Z</time>
      </trkpt>
      <trkpt lat="47.23973" lon="-2.27078">
        <ele>6</ele>
        <time>2023-11-13T13:49:52Z</time>
      </trkpt>
      <trkpt lat="47.24008" lon="-2.27058">
        <ele>10</ele>
        <time>2023-11-13T13:50:42Z</time>
      </trkpt>
      <trkpt lat="47.24003" lon="-2.27031">
        <ele>11</ele>
        <time>2023-11-13T13:51:08Z</time>
      </trkpt>
      <trkpt lat="47.24014" lon="-2.27011">
        <ele>12</ele>
        <time>2023-11-13T13:51:31Z</time>
      </trkpt>
      <trkpt lat="47.24007" lon="-2.26986">
        <ele>13</ele>
        <time>2023-11-13T13:51:56Z</time>
      </trkpt>
      <trkpt lat="47.23993" lon="-2.2697">
        <ele>14</ele>
        <time>2023-11-13T13:52:19Z</time>
      </trkpt>
      <trkpt lat="47.23976" lon="-2.26959">
        <ele>13</ele>
        <time>2023-11-13T13:52:44Z</time>
      </trkpt>
      <trkpt lat="47.23957" lon="-2.26953">
        <ele>12</ele>
        <time>2023-11-13T13:53:10Z</time>
      </trkpt>
      <trkpt lat="47.23946" lon="-2.26932">
        <ele>13</ele>
        <time>2023-11-13T13:53:34Z</time>
      </trkpt>
      <trkpt lat="47.23942" lon="-2.26905">
        <ele>14</ele>
        <time>2023-11-13T13:53:59Z</time>
      </trkpt>
      <trkpt lat="47.23927" lon="-2.2689">
        <ele>13</ele>
        <time>2023-11-13T13:54:23Z</time>
      </trkpt>
      <trkpt lat="47.23872" lon="-2.2687">
        <ele>7</ele>
        <time>2023-11-13T13:55:39Z</time>
      </trkpt>
      <trkpt lat="47.23865" lon="-2.26846">
        <ele>7</ele>
        <time>2023-11-13T13:56:03Z</time>
      </trkpt>
      <trkpt lat="47.23883" lon="-2.26838">
        <ele>10</ele>
        <time>2023-11-13T13:56:28Z</time>
      </trkpt>
      <trkpt lat="47.23896" lon="-2.26819">
        <ele>11</ele>
        <time>2023-11-13T13:56:52Z</time>
      </trkpt>
      <trkpt lat="47.23892" lon="-2.26792">
        <ele>10</ele>
        <time>2023-11-13T13:57:17Z</time>
      </trkpt>
      <trkpt lat="47.23894" lon="-2.26766">
        <ele>9</ele>
        <time>2023-11-13T13:57:41Z</time>
      </trkpt>
      <trkpt lat="47.23906" lon="-2.26744">
        <ele>9</ele>
        <time>2023-11-13T13:58:06Z</time>
      </trkpt>
      <trkpt lat="47.23924" lon="-2.2675">
        <ele>12</ele>
        <time>2023-11-13T13:58:31Z</time>
      </trkpt>
      <trkpt lat="47.23959" lon="-2.26737">
        <ele>13</ele>
        <time>2023-11-13T13:59:19Z</time>
      </trkpt>
      <trkpt lat="47.23996" lon="-2.2674">
        <ele>17</ele>
        <time>2023-11-13T14:00:09Z</time>
      </trkpt>
      <trkpt lat="47.24015" lon="-2.26736">
        <ele>18</ele>
        <time>2023-11-13T14:00:34Z</time>
      </trkpt>
      <trkpt lat="47.24033" lon="-2.26728">
        <ele>20</ele>
        <time>2023-11-13T14:00:59Z</time>
      </trkpt>
      <trkpt lat="47.2405" lon="-2.26715">
        <ele>20</ele>
        <time>2023-11-13T14:01:25Z</time>
      </trkpt>
      <trkpt lat="47.24065" lon="-2.26698">
        <ele>21</ele>
        <time>2023-11-13T14:01:50Z</time>
      </trkpt>
      <trkpt lat="47.24099" lon="-2.26635">
        <ele>20</ele>
        <time>2023-11-13T14:03:03Z</time>
      </trkpt>
      <trkpt lat="47.24108" lon="-2.26611">
        <ele>19</ele>
        <time>2023-11-13T14:03:28Z</time>
      </trkpt>
      <trkpt lat="47.24105" lon="-2.26584">
        <ele>16</ele>
        <time>2023-11-13T14:03:53Z</time>
      </trkpt>
      <trkpt lat="47.24122" lon="-2.26575">
        <ele>18</ele>
        <time>2023-11-13T14:04:17Z</time>
      </trkpt>
      <trkpt lat="47.24141" lon="-2.26579">
        <ele>22</ele>
        <time>2023-11-13T14:04:42Z</time>
      </trkpt>
      <trkpt lat="47.24149" lon="-2.26603">
        <ele>25</ele>
        <time>2023-11-13T14:05:07Z</time>
      </trkpt>
      <trkpt lat="47.24166" lon="-2.26613">
        <ele>28</ele>
        <time>2023-11-13T14:05:31Z</time>
      </trkpt>
      <trkpt lat="47.24203" lon="-2.26624">
        <ele>30</ele>
        <time>2023-11-13T14:06:21Z</time>
      </trkpt>
      <trkpt lat="47.24218" lon="-2.26607">
        <ele>29</ele>
        <time>2023-11-13T14:06:47Z</time>
      </trkpt>
      <trkpt lat="47.24217" lon="-2.26526">
        <ele>24</ele>
        <time>2023-11-13T14:08:00Z</time>
      </trkpt>
      <trkpt lat="47.24228" lon="-2.26473">
        <ele>23</ele>
        <time>2023-11-13T14:08:50Z</time>
      </trkpt>
      <trkpt lat="47.24205" lon="-2.26426">
        <ele>16</ele>
        <time>2023-11-13T14:09:43Z</time>
      </trkpt>
      <trkpt lat="47.2419" lon="-2.26411">
        <ele>13</ele>
        <time>2023-11-13T14:10:07Z</time>
      </trkpt>
      <trkpt lat="47.24177" lon="-2.26391">
        <ele>9</ele>
        <time>2023-11-13T14:10:32Z</time>
      </trkpt>
      <trkpt lat="47.24176" lon="-2.26364">
        <ele>8</ele>
        <time>2023-11-13T14:10:57Z</time>
      </trkpt>
      <trkpt lat="47.24189" lon="-2.26345">
        <ele>10</ele>
        <time>2023-11-13T14:11:21Z</time>
      </trkpt>
      <trkpt lat="47.24207" lon="-2.26339">
        <ele>13</ele>
        <time>2023-11-13T14:11:46Z</time>
      </trkpt>
      <trkpt lat="47.24221" lon="-2.26321">
        <ele>14</ele>
        <time>2023-11-13T14:12:10Z</time>
      </trkpt>
      <trkpt lat="47.24217" lon="-2.26294">
        <ele>10</ele>
        <time>2023-11-13T14:12:35Z</time>
      </trkpt>
      <trkpt lat="47.24235" lon="-2.26289">
        <ele>11</ele>
        <time>2023-11-13T14:13:00Z</time>
      </trkpt>
      <trkpt lat="47.24252" lon="-2.26301">
        <ele>15</ele>
        <time>2023-11-13T14:13:25Z</time>
      </trkpt>
      <trkpt lat="47.24269" lon="-2.26289">
        <ele>14</ele>
        <time>2023-11-13T14:13:50Z</time>
      </trkpt>
      <trkpt lat="47.24279" lon="-2.26266">
        <ele>12</ele>
        <time>2023-11-13T14:14:15Z</time>
      </trkpt>
      <trkpt lat="47.24277" lon="-2.26239">
        <ele>8</ele>
        <time>2023-11-13T14:14:40Z</time>
      </trkpt>
      <trkpt lat="47.24294" lon="-2.26226">
        <ele>8</ele>
        <time>2023-11-13T14:15:05Z</time>
      </trkpt>
      <trkpt lat="47.24312" lon="-2.26229">
        <ele>10</ele>
        <time>2023-11-13T14:15:29Z</time>
      </trkpt>
      <trkpt lat="47.24325" lon="-2.26249">
        <ele>13</ele>
        <time>2023-11-13T14:15:54Z</time>
      </trkpt>
      <trkpt lat="47.24334" lon="-2.26273">
        <ele>17</ele>
        <time>2023-11-13T14:16:19Z</time>
      </trkpt>
      <trkpt lat="47.24353" lon="-2.26268">
        <ele>17</ele>
        <time>2023-11-13T14:16:45Z</time>
      </trkpt>
      <trkpt lat="47.24372" lon="-2.26272">
        <ele>19</ele>
        <time>2023-11-13T14:17:11Z</time>
      </trkpt>
      <trkpt lat="47.24389" lon="-2.26263">
        <ele>19</ele>
        <time>2023-11-13T14:17:35Z</time>
      </trkpt>
      <trkpt lat="47.24426" lon="-2.26261">
        <ele>22</ele>
        <time>2023-11-13T14:18:24Z</time>
      </trkpt>
      <trkpt lat="47.24423" lon="-2.26235">
        <ele>18</ele>
        <time>2023-11-13T14:18:48Z</time>
      </trkpt>
      <trkpt lat="47.24427" lon="-2.26207">
        <ele>13</ele>
        <time>2023-11-13T14:19:14Z</time>
      </trkpt>
      <trkpt lat="47.24441" lon="-2.26191">
        <ele>12</ele>
        <time>2023-11-13T14:19:38Z</time>
      </trkpt>
      <trkpt lat="47.24458" lon="-2.2618">
        <ele>11</ele>
        <time>2023-11-13T14:20:02Z</time>
      </trkpt>
      <trkpt lat="47.24494" lon="-2.26173">
        <ele>13</ele>
        <time>2023-11-13T14:20:51Z</time>
      </trkpt>
      <trkpt lat="47.2451" lon="-2.26157">
        <ele>13</ele>
        <time>2023-11-13T14:21:17Z</time>
      </trkpt>
      <trkpt lat="47.24509" lon="-2.2613">
        <ele>9</ele>
        <time>2023-11-13T14:21:41Z</time>
      </trkpt>
      <trkpt lat="47.24527" lon="-2.26124">
        <ele>9</ele>
        <time>2023-11-13T14:22:06Z</time>
      </trkpt>
      <trkpt lat="47.24545" lon="-2.26127">
        <ele>11</ele>
        <time>2023-11-13T14:22:30Z</time>
      </trkpt>
      <trkpt lat="47.24562" lon="-2.26118">
        <ele>10</ele>
        <time>2023-11-13T14:22:54Z</time>
      </trkpt>
      <trkpt lat="47.24598" lon="-2.26108">
        <ele>11</ele>
        <time>2023-11-13T14:23:43Z</time>
      </trkpt>
      <trkpt lat="47.24644" lon="-2.26062">
        <ele>9</ele>
        <time>2023-11-13T14:24:57Z</time>
      </trkpt>
      <trkpt lat="47.24662" lon="-2.26067">
        <ele>11</ele>
        <time>2023-11-13T14:25:22Z</time>
      </trkpt>
      <trkpt lat="47.24678" lon="-2.26083">
        <ele>14</ele>
        <time>2023-11-13T14:25:47Z</time>
      </trkpt>
      <trkpt lat="47.24682" lon="-2.26111">
        <ele>17</ele>
        <time>2023-11-13T14:26:13Z</time>
      </trkpt>
      <trkpt lat="47.24691" lon="-2.26087">
        <ele>15</ele>
        <time>2023-11-13T14:26:38Z</time>
      </trkpt>
      <trkpt lat="47.24709" lon="-2.26094">
        <ele>17</ele>
        <time>2023-11-13T14:27:03Z</time>
      </trkpt>
      <trkpt lat="47.24728" lon="-2.26085">
        <ele>16</ele>
        <time>2023-11-13T14:27:30Z</time>
      </trkpt>
      <trkpt lat="47.24745" lon="-2.26081">
        <ele>17</ele>
        <time>2023-11-13T14:27:53Z</time>
      </trkpt>
      <trkpt lat="47.2476" lon="-2.26065">
        <ele>16</ele>
        <time>2023-11-13T14:28:17Z</time>
      </trkpt>
      <trkpt lat="47.2477" lon="-2.26041">
        <ele>15</ele>
        <time>2023-11-13T14:28:43Z</time>
      </trkpt>
      <trkpt lat="47.24786" lon="-2.26031">
        <ele>15</ele>
        <time>2023-11-13T14:29:06Z</time>
      </trkpt>
      <trkpt lat="47.248" lon="-2.26012">
        <ele>16</ele>
        <time>2023-11-13T14:29:31Z</time>
      </trkpt>
      <trkpt lat="47.24802" lon="-2.25985">
        <ele>13</ele>
        <time>2023-11-13T14:29:56Z</time>
      </trkpt>
      <trkpt lat="47.2482" lon="-2.25988">
        <ele>16</ele>
        <time>2023-11-13T14:30:20Z</time>
      </trkpt>
      <trkpt lat="47.24831" lon="-2.2601">
        <ele>19</ele>
        <time>2023-11-13T14:30:45Z</time>
      </trkpt>
      <trkpt lat="47.24848" lon="-2.26016">
        <ele>21</ele>
        <time>2023-11-13T14:31:08Z</time>
      </trkpt>
      <trkpt lat="47.24866" lon="-2.26009">
        <ele>22</ele>
        <time>2023-11-13T14:31:33Z</time>
      </trkpt>
      <trkpt lat="47.24883" lon="-2.26018">
        <ele>24</ele>
        <time>2023-11-13T14:31:57Z</time>
      </trkpt>
      <trkpt lat="47.24899" lon="-2.26005">
        <ele>25</ele>
        <time>2023-11-13T14:32:22Z</time>
      </trkpt>
      <trkpt lat="47.24917" lon="-2.25997">
        <ele>26</ele>
        <time>2023-11-13T14:32:47Z</time>
      </trkpt>
      <trkpt lat="47.24935" lon="-2.25999">
        <ele>27</ele>
        <time>2023-11-13T14:33:11Z</time>
      </trkpt>
      <trkpt lat="47.24942" lon="-2.25973">
        <ele>24</ele>
        <time>2023-11-13T14:33:36Z</time>
      </trkpt>
      <trkpt lat="47.24953" lon="-2.25951">
        <ele>23</ele>
        <time>2023-11-13T14:34:01Z</time>
      </trkpt>
      <trkpt lat="47.24962" lon="-2.25924">
        <ele>21</ele>
        <time>2023-11-13T14:34:28Z</time>
      </trkpt>
      <trkpt lat="47.24977" lon="-2.25906">
        <ele>22</ele>
        <time>2023-11-13T14:34:54Z</time>
      </trkpt>
      <trkpt lat="47.24987" lon="-2.25883">
        <ele>21</ele>
        <time>2023-11-13T14:35:19Z</time>
      </trkpt>
      <trkpt lat="47.24993" lon="-2.25857">
        <ele>20</ele>
        <time>2023-11-13T14:35:44Z</time>
      </trkpt>
      <trkpt lat="47.2501" lon="-2.25809">
        <ele>18</ele>
        <time>2023-11-13T14:36:33Z</time>
      </trkpt>
      <trkpt lat="47.25011" lon="-2.25782">
        <ele>16</ele>
        <time>2023-11-13T14:36:57Z</time>
      </trkpt>
      <trkpt lat="47.25019" lon="-2.25757">
        <ele>15</ele>
        <time>2023-11-13T14:37:22Z</time>
      </trkpt>
      <trkpt lat="47.25021" lon="-2.25729">
        <ele>14</ele>
        <time>2023-11-13T14:37:48Z</time>
      </trkpt>
      <trkpt lat="47.25021" lon="-2.25701">
        <ele>12</ele>
        <time>2023-11-13T14:38:13Z</time>
      </trkpt>
      <trkpt lat="47.25008" lon="-2.25681">
        <ele>10</ele>
        <time>2023-11-13T14:38:38Z</time>
      </trkpt>
      <trkpt lat="47.2501" lon="-2.25655">
        <ele>9</ele>
        <time>2023-11-13T14:39:02Z</time>
      </trkpt>
      <trkpt lat="47.25034" lon="-2.2561">
        <ele>7</ele>
        <time>2023-11-13T14:39:54Z</time>
      </trkpt>
      <trkpt lat="47.25047" lon="-2.25629">
        <ele>9</ele>
        <time>2023-11-13T14:40:18Z</time>
      </trkpt>
      <trkpt lat="47.25066" lon="-2.2563">
        <ele>10</ele>
        <time>2023-11-13T14:40:43Z</time>
      </trkpt>
      <trkpt lat="47.25086" lon="-2.25625">
        <ele>11</ele>
        <time>2023-11-13T14:41:10Z</time>
      </trkpt>
      <trkpt lat="47.25099" lon="-2.25606">
        <ele>10</ele>
        <time>2023-11-13T14:41:35Z</time>
      </trkpt>
      <trkpt lat="47.25117" lon="-2.256">
        <ele>11</ele>
        <time>2023-11-13T14:42:00Z</time>
      </trkpt>
      <trkpt lat="47.25144" lon="-2.25562">
        <ele>10</ele>
        <time>2023-11-13T14:42:49Z</time>
      </trkpt>
      <trkpt lat="47.25153" lon="-2.25536">
        <ele>8</ele>
        <time>2023-11-13T14:43:16Z</time>
      </trkpt>
      <trkpt lat="47.25165" lon="-2.25515">
        <ele>7</ele>
        <time>2023-11-13T14:43:41Z</time>
      </trkpt>
      <trkpt lat="47.25183" lon="-2.25514">
        <ele>9</ele>
        <time>2023-11-13T14:44:05Z</time>
      </trkpt>
      <trkpt lat="47.25201" lon="-2.25519">
        <ele>11</ele>
        <time>2023-11-13T14:44:29Z</time>
      </trkpt>
      <trkpt lat="47.2521" lon="-2.25494">
        <ele>10</ele>
        <time>2023-11-13T14:44:55Z</time>
      </trkpt>
      <trkpt lat="47.25225" lon="-2.25477">
        <ele>11</ele>
        <time>2023-11-13T14:45:20Z</time>
      </trkpt>
      <trkpt lat="47.25238" lon="-2.25457">
        <ele>11</ele>
        <time>2023-11-13T14:45:45Z</time>
      </trkpt>
      <trkpt lat="47.25243" lon="-2.25431">
        <ele>10</ele>
        <time>2023-11-13T14:46:10Z</time>
      </trkpt>
      <trkpt lat="47.25255" lon="-2.25408">
        <ele>9</ele>
        <time>2023-11-13T14:46:36Z</time>
      </trkpt>
      <trkpt lat="47.25273" lon="-2.25406">
        <ele>10</ele>
        <time>2023-11-13T14:47:00Z</time>
      </trkpt>
      <trkpt lat="47.25274" lon="-2.25379">
        <ele>10</ele>
        <time>2023-11-13T14:47:24Z</time>
      </trkpt>
      <trkpt lat="47.25304" lon="-2.25413">
        <ele>11</ele>
        <time>2023-11-13T14:48:15Z</time>
      </trkpt>
      <trkpt lat="47.25322" lon="-2.25415">
        <ele>12</ele>
        <time>2023-11-13T14:48:39Z</time>
      </trkpt>
      <trkpt lat="47.2534" lon="-2.25412">
        <ele>12</ele>
        <time>2023-11-13T14:49:03Z</time>
      </trkpt>
      <trkpt lat="47.25344" lon="-2.25386">
        <ele>11</ele>
        <time>2023-11-13T14:49:27Z</time>
      </trkpt>
      <trkpt lat="47.25344" lon="-2.25331">
        <ele>9</ele>
        <time>2023-11-13T14:50:17Z</time>
      </trkpt>
      <trkpt lat="47.25353" lon="-2.25306">
        <ele>10</ele>
        <time>2023-11-13T14:50:43Z</time>
      </trkpt>
      <trkpt lat="47.2536" lon="-2.25254">
        <ele>10</ele>
        <time>2023-11-13T14:51:31Z</time>
      </trkpt>
      <trkpt lat="47.25345" lon="-2.25238">
        <ele>8</ele>
        <time>2023-11-13T14:51:56Z</time>
      </trkpt>
      <trkpt lat="47.25347" lon="-2.25212">
        <ele>9</ele>
        <time>2023-11-13T14:52:19Z</time>
      </trkpt>
      <trkpt lat="47.25361" lon="-2.25162">
        <ele>11</ele>
        <time>2023-11-13T14:53:08Z</time>
      </trkpt>
      <trkpt lat="47.25361" lon="-2.25135">
        <ele>10</ele>
        <time>2023-11-13T14:53:33Z</time>
      </trkpt>
      <trkpt lat="47.25373" lon="-2.25114">
        <ele>12</ele>
        <time>2023-11-13T14:53:58Z</time>
      </trkpt>
      <trkpt lat="47.25391" lon="-2.25036">
        <ele>15</ele>
        <time>2023-11-13T14:55:12Z</time>
      </trkpt>
      <trkpt lat="47.25387" lon="-2.24982">
        <ele>13</ele>
        <time>2023-11-13T14:56:01Z</time>
      </trkpt>
      <trkpt lat="47.25392" lon="-2.24956">
        <ele>13</ele>
        <time>2023-11-13T14:56:26Z</time>
      </trkpt>
      <trkpt lat="47.25415" lon="-2.24912">
        <ele>14</ele>
        <time>2023-11-13T14:57:16Z</time>
      </trkpt>
      <trkpt lat="47.25431" lon="-2.24898">
        <ele>13</ele>
        <time>2023-11-13T14:57:41Z</time>
      </trkpt>
      <trkpt lat="47.25444" lon="-2.24879">
        <ele>11</ele>
        <time>2023-11-13T14:58:05Z</time>
      </trkpt>
      <trkpt lat="47.25459" lon="-2.24894">
        <ele>14</ele>
        <time>2023-11-13T14:58:30Z</time>
      </trkpt>
      <trkpt lat="47.25471" lon="-2.24915">
        <ele>19</ele>
        <time>2023-11-13T14:58:55Z</time>
      </trkpt>
      <trkpt lat="47.25489" lon="-2.24923">
        <ele>21</ele>
        <time>2023-11-13T14:59:20Z</time>
      </trkpt>
      <trkpt lat="47.25507" lon="-2.24921">
        <ele>23</ele>
        <time>2023-11-13T14:59:44Z</time>
      </trkpt>
      <trkpt lat="47.25541" lon="-2.24902">
        <ele>21</ele>
        <time>2023-11-13T15:00:32Z</time>
      </trkpt>
      <trkpt lat="47.25556" lon="-2.24885">
        <ele>20</ele>
        <time>2023-11-13T15:00:57Z</time>
      </trkpt>
      <trkpt lat="47.25578" lon="-2.2484">
        <ele>16</ele>
        <time>2023-11-13T15:01:48Z</time>
      </trkpt>
      <trkpt lat="47.25595" lon="-2.24791">
        <ele>17</ele>
        <time>2023-11-13T15:02:38Z</time>
      </trkpt>
      <trkpt lat="47.25606" lon="-2.2477">
        <ele>18</ele>
        <time>2023-11-13T15:03:02Z</time>
      </trkpt>
      <trkpt lat="47.25616" lon="-2.24717">
        <ele>17</ele>
        <time>2023-11-13T15:03:51Z</time>
      </trkpt>
      <trkpt lat="47.25614" lon="-2.2469">
        <ele>15</ele>
        <time>2023-11-13T15:04:16Z</time>
      </trkpt>
      <trkpt lat="47.25624" lon="-2.24638">
        <ele>14</ele>
        <time>2023-11-13T15:05:05Z</time>
      </trkpt>
      <trkpt lat="47.25625" lon="-2.2461">
        <ele>14</ele>
        <time>2023-11-13T15:05:30Z</time>
      </trkpt>
      <trkpt lat="47.25623" lon="-2.24528">
        <ele>13</ele>
        <time>2023-11-13T15:06:45Z</time>
      </trkpt>
      <trkpt lat="47.25611" lon="-2.24449">
        <ele>11</ele>
        <time>2023-11-13T15:07:58Z</time>
      </trkpt>
      <trkpt lat="47.2561" lon="-2.24394">
        <ele>11</ele>
        <time>2023-11-13T15:08:48Z</time>
      </trkpt>
      <trkpt lat="47.25616" lon="-2.24369">
        <ele>12</ele>
        <time>2023-11-13T15:09:12Z</time>
      </trkpt>
      <trkpt lat="47.25619" lon="-2.24342">
        <ele>12</ele>
        <time>2023-11-13T15:09:37Z</time>
      </trkpt>
      <trkpt lat="47.25617" lon="-2.24314">
        <ele>11</ele>
        <time>2023-11-13T15:10:02Z</time>
      </trkpt>
      <trkpt lat="47.25619" lon="-2.24287">
        <ele>11</ele>
        <time>2023-11-13T15:10:27Z</time>
      </trkpt>
      <trkpt lat="47.25627" lon="-2.24205">
        <ele>11</ele>
        <time>2023-11-13T15:11:42Z</time>
      </trkpt>
      <trkpt lat="47.25633" lon="-2.24179">
        <ele>12</ele>
        <time>2023-11-13T15:12:07Z</time>
      </trkpt>
      <trkpt lat="47.25631" lon="-2.24153">
        <ele>12</ele>
        <time>2023-11-13T15:12:30Z</time>
      </trkpt>
      <trkpt lat="47.25642" lon="-2.24072">
        <ele>12</ele>
        <time>2023-11-13T15:13:45Z</time>
      </trkpt>
      <trkpt lat="47.25638" lon="-2.24045">
        <ele>11</ele>
        <time>2023-11-13T15:14:10Z</time>
      </trkpt>
      <trkpt lat="47.25626" lon="-2.24024">
        <ele>9</ele>
        <time>2023-11-13T15:14:35Z</time>
      </trkpt>
      <trkpt lat="47.25628" lon="-2.23997">
        <ele>9</ele>
        <time>2023-11-13T15:15:00Z</time>
      </trkpt>
      <trkpt lat="47.25646" lon="-2.23948">
        <ele>11</ele>
        <time>2023-11-13T15:15:50Z</time>
      </trkpt>
      <trkpt lat="47.25651" lon="-2.23866">
        <ele>12</ele>
        <time>2023-11-13T15:17:05Z</time>
      </trkpt>
      <trkpt lat="47.25642" lon="-2.23812">
        <ele>10</ele>
        <time>2023-11-13T15:17:55Z</time>
      </trkpt>
      <trkpt lat="47.25643" lon="-2.23784">
        <ele>10</ele>
        <time>2023-11-13T15:18:20Z</time>
      </trkpt>
      <trkpt lat="47.25648" lon="-2.23731">
        <ele>10</ele>
        <time>2023-11-13T15:19:09Z</time>
      </trkpt>
      <trkpt lat="47.25653" lon="-2.23705">
        <ele>10</ele>
        <time>2023-11-13T15:19:33Z</time>
      </trkpt>
      <trkpt lat="47.25653" lon="-2.23651">
        <ele>8</ele>
        <time>2023-11-13T15:20:22Z</time>
      </trkpt>
      <trkpt lat="47.2566" lon="-2.23598">
        <ele>7</ele>
        <time>2023-11-13T15:21:11Z</time>
      </trkpt>
      <trkpt lat="47.25647" lon="-2.23545">
        <ele>6</ele>
        <time>2023-11-13T15:22:02Z</time>
      </trkpt>
      <trkpt lat="47.25645" lon="-2.23517">
        <ele>6</ele>
        <time>2023-11-13T15:22:28Z</time>
      </trkpt>
      <trkpt lat="47.25633" lon="-2.23464">
        <ele>6</ele>
        <time>2023-11-13T15:23:18Z</time>
      </trkpt>
      <trkpt lat="47.25633" lon="-2.23437">
        <ele>6</ele>
        <time>2023-11-13T15:23:43Z</time>
      </trkpt>
      <trkpt lat="47.25629" lon="-2.2341">
        <ele>6</ele>
        <time>2023-11-13T15:24:08Z</time>
      </trkpt>
      <trkpt lat="47.25626" lon="-2.23356">
        <ele>6</ele>
        <time>2023-11-13T15:24:57Z</time>
      </trkpt>
      <trkpt lat="47.25611" lon="-2.23277">
        <ele>5</ele>
        <time>2023-11-13T15:26:11Z</time>
      </trkpt>
      <trkpt lat="47.25603" lon="-2.23252">
        <ele>4</ele>
        <time>2023-11-13T15:26:36Z</time>
      </trkpt>
      <trkpt lat="47.25606" lon="-2.23223">
        <ele>4</ele>
        <time>2023-11-13T15:27:03Z</time>
      </trkpt>
      <trkpt lat="47.25605" lon="-2.2314">
        <ele>4</ele>
        <time>2023-11-13T15:28:18Z</time>
      </trkpt>
      <trkpt lat="47.25589" lon="-2.23032">
        <ele>2</ele>
        <time>2023-11-13T15:29:58Z</time>
      </trkpt>
      <trkpt lat="47.25591" lon="-2.22978">
        <ele>4</ele>
        <time>2023-11-13T15:30:47Z</time>
      </trkpt>
      <trkpt lat="47.25603" lon="-2.22926">
        <ele>8</ele>
        <time>2023-11-13T15:31:37Z</time>
      </trkpt>
      <trkpt lat="47.25621" lon="-2.22924">
        <ele>8</ele>
        <time>2023-11-13T15:32:01Z</time>
      </trkpt>
      <trkpt lat="47.25658" lon="-2.22936">
        <ele>9</ele>
        <time>2023-11-13T15:32:51Z</time>
      </trkpt>
      <trkpt lat="47.25669" lon="-2.22884">
        <ele>9</ele>
        <time>2023-11-13T15:33:41Z</time>
      </trkpt>
      <trkpt lat="47.25678" lon="-2.2286">
        <ele>8</ele>
        <time>2023-11-13T15:34:06Z</time>
      </trkpt>
      <trkpt lat="47.25708" lon="-2.2283">
        <ele>8</ele>
        <time>2023-11-13T15:34:54Z</time>
      </trkpt>
      <trkpt lat="47.25758" lon="-2.22795">
        <ele>7</ele>
        <time>2023-11-13T15:36:08Z</time>
      </trkpt>
      <trkpt lat="47.25772" lon="-2.22778">
        <ele>7</ele>
        <time>2023-11-13T15:36:32Z</time>
      </trkpt>
      <trkpt lat="47.25784" lon="-2.22756">
        <ele>7</ele>
        <time>2023-11-13T15:36:58Z</time>
      </trkpt>
      <trkpt lat="47.25791" lon="-2.22731">
        <ele>8</ele>
        <time>2023-11-13T15:37:22Z</time>
      </trkpt>
      <trkpt lat="47.25795" lon="-2.22705">
        <ele>9</ele>
        <time>2023-11-13T15:37:46Z</time>
      </trkpt>
      <trkpt lat="47.25792" lon="-2.22596">
        <ele>6</ele>
        <time>2023-11-13T15:39:25Z</time>
      </trkpt>
      <trkpt lat="47.25808" lon="-2.22488">
        <ele>6</ele>
        <time>2023-11-13T15:41:05Z</time>
      </trkpt>
      <trkpt lat="47.25812" lon="-2.22462">
        <ele>6</ele>
        <time>2023-11-13T15:41:29Z</time>
      </trkpt>
      <trkpt lat="47.25826" lon="-2.22413">
        <ele>7</ele>
        <time>2023-11-13T15:42:18Z</time>
      </trkpt>
      <trkpt lat="47.25838" lon="-2.22359">
        <ele>6</ele>
        <time>2023-11-13T15:43:09Z</time>
      </trkpt>
      <trkpt lat="47.25848" lon="-2.22337">
        <ele>5</ele>
        <time>2023-11-13T15:43:33Z</time>
      </trkpt>
      <trkpt lat="47.25863" lon="-2.2232">
        <ele>4</ele>
        <time>2023-11-13T15:43:58Z</time>
      </trkpt>
      <trkpt lat="47.25881" lon="-2.22311">
        <ele>3</ele>
        <time>2023-11-13T15:44:24Z</time>
      </trkpt>
      <trkpt lat="47.25918" lon="-2.22311">
        <ele>3</ele>
        <time>2023-11-13T15:45:13Z</time>
      </trkpt>
      <trkpt lat="47.25934" lon="-2.22326">
        <ele>3</ele>
        <time>2023-11-13T15:45:38Z</time>
      </trkpt>
      <trkpt lat="47.25953" lon="-2.22329">
        <ele>3</ele>
        <time>2023-11-13T15:46:04Z</time>
      </trkpt>
      <trkpt lat="47.26003" lon="-2.22366">
        <ele>4</ele>
        <time>2023-11-13T15:47:18Z</time>
      </trkpt>
      <trkpt lat="47.26072" lon="-2.22404">
        <ele>6</ele>
        <time>2023-11-13T15:48:57Z</time>
      </trkpt>
      <trkpt lat="47.26143" lon="-2.22433">
        <ele>4</ele>
        <time>2023-11-13T15:50:35Z</time>
      </trkpt>
      <trkpt lat="47.26234" lon="-2.22464">
        <ele>3</ele>
        <time>2023-11-13T15:52:40Z</time>
      </trkpt>
      <trkpt lat="47.26288" lon="-2.22487">
        <ele>4</ele>
        <time>2023-11-13T15:53:55Z</time>
      </trkpt>
      <trkpt lat="47.26306" lon="-2.22493">
        <ele>3</ele>
        <time>2023-11-13T15:54:19Z</time>
      </trkpt>
      <trkpt lat="47.26314" lon="-2.22493">
        <ele>3</ele>
        <time>2023-11-13T15:54:30Z</time>
      </trkpt>
      <trkpt lat="47.26332" lon="-2.22502">
        <ele>3</ele>
        <time>2023-11-13T15:54:55Z</time>
      </trkpt>
      <trkpt lat="47.26385" lon="-2.22521">
        <ele>4</ele>
        <time>2023-11-13T15:56:08Z</time>
      </trkpt>
      <trkpt lat="47.26422" lon="-2.22519">
        <ele>3</ele>
        <time>2023-11-13T15:56:58Z</time>
      </trkpt>
      <trkpt lat="47.26441" lon="-2.22515">
        <ele>3</ele>
        <time>2023-11-13T15:57:23Z</time>
      </trkpt>
      <trkpt lat="47.26476" lon="-2.22499">
        <ele>4</ele>
        <time>2023-11-13T15:58:12Z</time>
      </trkpt>
      <trkpt lat="47.26508" lon="-2.2247">
        <ele>4</ele>
        <time>2023-11-13T15:59:02Z</time>
      </trkpt>
      <trkpt lat="47.26522" lon="-2.22452">
        <ele>5</ele>
        <time>2023-11-13T15:59:27Z</time>
      </trkpt>
      <trkpt lat="47.26561" lon="-2.22392">
        <ele>6</ele>
        <time>2023-11-13T16:00:42Z</time>
      </trkpt>
      <trkpt lat="47.26582" lon="-2.22348">
        <ele>5</ele>
        <time>2023-11-13T16:01:31Z</time>
      </trkpt>
      <trkpt lat="47.26608" lon="-2.22311">
        <ele>4</ele>
        <time>2023-11-13T16:02:19Z</time>
      </trkpt>
      <trkpt lat="47.26628" lon="-2.22265">
        <ele>4</ele>
        <time>2023-11-13T16:03:09Z</time>
      </trkpt>
      <trkpt lat="47.26689" lon="-2.22161">
        <ele>5</ele>
        <time>2023-11-13T16:05:13Z</time>
      </trkpt>
      <trkpt lat="47.26706" lon="-2.22173">
        <ele>5</ele>
        <time>2023-11-13T16:05:38Z</time>
      </trkpt>
      <trkpt lat="47.26724" lon="-2.22171">
        <ele>5</ele>
        <time>2023-11-13T16:06:02Z</time>
      </trkpt>
      <trkpt lat="47.26775" lon="-2.22206">
        <ele>5</ele>
        <time>2023-11-13T16:07:17Z</time>
      </trkpt>
      <trkpt lat="47.26793" lon="-2.22206">
        <ele>6</ele>
        <time>2023-11-13T16:07:41Z</time>
      </trkpt>
      <trkpt lat="47.26811" lon="-2.22215">
        <ele>6</ele>
        <time>2023-11-13T16:08:07Z</time>
      </trkpt>
      <trkpt lat="47.26842" lon="-2.22245">
        <ele>5</ele>
        <time>2023-11-13T16:08:56Z</time>
      </trkpt>
      <trkpt lat="47.26858" lon="-2.22256">
        <ele>5</ele>
        <time>2023-11-13T16:09:20Z</time>
      </trkpt>
      <trkpt lat="47.26867" lon="-2.22233">
        <ele>6</ele>
        <time>2023-11-13T16:09:44Z</time>
      </trkpt>
      <trkpt lat="47.26885" lon="-2.22239">
        <ele>6</ele>
        <time>2023-11-13T16:10:09Z</time>
      </trkpt>
      <trkpt lat="47.26919" lon="-2.22257">
        <ele>6</ele>
        <time>2023-11-13T16:10:57Z</time>
      </trkpt>
      <trkpt lat="47.26951" lon="-2.22287">
        <ele>6</ele>
        <time>2023-11-13T16:11:47Z</time>
      </trkpt>
      <trkpt lat="47.26984" lon="-2.22313">
        <ele>5</ele>
        <time>2023-11-13T16:12:37Z</time>
      </trkpt>
      <trkpt lat="47.26997" lon="-2.22331">
        <ele>5</ele>
        <time>2023-11-13T16:13:01Z</time>
      </trkpt>
      <trkpt lat="47.27031" lon="-2.22358">
        <ele>5</ele>
        <time>2023-11-13T16:13:53Z</time>
      </trkpt>
      <trkpt lat="47.27049" lon="-2.2236">
        <ele>5</ele>
        <time>2023-11-13T16:14:17Z</time>
      </trkpt>
      <trkpt lat="47.27084" lon="-2.22338">
        <ele>5</ele>
        <time>2023-11-13T16:15:08Z</time>
      </trkpt>
      <trkpt lat="47.27101" lon="-2.2235">
        <ele>6</ele>
        <time>2023-11-13T16:15:33Z</time>
      </trkpt>
      <trkpt lat="47.27137" lon="-2.22411">
        <ele>9</ele>
        <time>2023-11-13T16:16:46Z</time>
      </trkpt>
      <trkpt lat="47.27156" lon="-2.22459">
        <ele>10</ele>
        <time>2023-11-13T16:17:36Z</time>
      </trkpt>
      <trkpt lat="47.27162" lon="-2.22484">
        <ele>11</ele>
        <time>2023-11-13T16:18:00Z</time>
      </trkpt>
      <trkpt lat="47.27174" lon="-2.22505">
        <ele>11</ele>
        <time>2023-11-13T16:18:25Z</time>
      </trkpt>
      <trkpt lat="47.27203" lon="-2.22537">
        <ele>9</ele>
        <time>2023-11-13T16:19:13Z</time>
      </trkpt>
      <trkpt lat="47.27208" lon="-2.22564">
        <ele>8</ele>
        <time>2023-11-13T16:19:39Z</time>
      </trkpt>
      <trkpt lat="47.27191" lon="-2.22613">
        <ele>8</ele>
        <time>2023-11-13T16:20:29Z</time>
      </trkpt>
      <trkpt lat="47.2716" lon="-2.22644">
        <ele>8</ele>
        <time>2023-11-13T16:21:19Z</time>
      </trkpt>
      <trkpt lat="47.27143" lon="-2.22692">
        <ele>7</ele>
        <time>2023-11-13T16:22:08Z</time>
      </trkpt>
      <trkpt lat="47.2713" lon="-2.22712">
        <ele>7</ele>
        <time>2023-11-13T16:22:33Z</time>
      </trkpt>
      <trkpt lat="47.27123" lon="-2.22737">
        <ele>6</ele>
        <time>2023-11-13T16:22:57Z</time>
      </trkpt>
      <trkpt lat="47.27132" lon="-2.22762">
        <ele>6</ele>
        <time>2023-11-13T16:23:23Z</time>
      </trkpt>
      <trkpt lat="47.27138" lon="-2.22818">
        <ele>6</ele>
        <time>2023-11-13T16:24:14Z</time>
      </trkpt>
    </trkseg>
  </trk>
</gpx>